<?xml version="1.0" encoding="UTF-8" standalone="no" ?>
<gpx xmlns="http://www.topografix.com/GPX/1/1" xmlns:xsi="http://www.w3.org/2001/XMLSchema-instance" xsi:schemaLocation="http://www.topografix.com/GPX/1/1 http://www.topografix.com/GPX/1/1/gpx.xsd" version="1.1" creator="VisuGPX - https://www.visugpx.com">
  <metadata>
    <name>CORSE - PEDESTRE - Boucle au village d\'Oggi depuis Lumio</name>
    <desc><![CDATA[Très belle randonnée]]></desc>
  </metadata>
  <wpt lat="42.57573" lon="8.8463">
    <ele>401.47326660156</ele>
    <name><![CDATA[008]]></name>
    <desc><![CDATA[26-JUN-15 9:31:52]]></desc>
    <cmt><![CDATA[26-JUN-15 9:31:52]]></cmt>
  </wpt>
  <wpt lat="42.57552" lon="8.84846">
    <ele>395.46496582031</ele>
    <name><![CDATA[009]]></name>
    <desc><![CDATA[26-JUN-15 9:35:57]]></desc>
    <cmt><![CDATA[26-JUN-15 9:35:57]]></cmt>
  </wpt>
  <wpt lat="42.57759" lon="8.84556">
    <ele>421.66076660156</ele>
    <name><![CDATA[010]]></name>
    <desc><![CDATA[26-JUN-15 9:42:54]]></desc>
    <cmt><![CDATA[26-JUN-15 9:42:54]]></cmt>
  </wpt>
  <wpt lat="42.58368" lon="8.83879">
    <ele>384.650390625</ele>
    <name><![CDATA[011]]></name>
    <desc><![CDATA[26-JUN-15 10:25:03]]></desc>
    <cmt><![CDATA[26-JUN-15 10:25:03]]></cmt>
  </wpt>
  <wpt lat="42.58265" lon="8.84153">
    <ele>461.31494140625</ele>
    <name><![CDATA[012]]></name>
    <desc><![CDATA[26-JUN-15 10:38:16]]></desc>
    <cmt><![CDATA[26-JUN-15 10:38:16]]></cmt>
  </wpt>
  <wpt lat="42.58244" lon="8.84453">
    <ele>563.4541015625</ele>
    <name><![CDATA[013]]></name>
    <desc><![CDATA[26-JUN-15 11:01:46]]></desc>
    <cmt><![CDATA[26-JUN-15 11:01:46]]></cmt>
  </wpt>
  <wpt lat="42.5838" lon="8.83974">
    <ele>402.19421386719</ele>
    <name><![CDATA[014]]></name>
    <desc><![CDATA[26-JUN-15 11:51:09]]></desc>
    <cmt><![CDATA[26-JUN-15 11:51:09]]></cmt>
  </wpt>
  <wpt lat="42.58464" lon="8.83868">
    <ele>379.60339355469</ele>
    <name><![CDATA[015]]></name>
    <desc><![CDATA[26-JUN-15 11:57:36]]></desc>
    <cmt><![CDATA[26-JUN-15 11:57:36]]></cmt>
  </wpt>
  <trk>
    <name><![CDATA[ACTIVE LOG 010]]></name>
    <trkseg>
      <trkpt lat="42.57549" lon="8.83555">
        <ele>202.97546386719</ele>
        <time>2015-06-26T06:59:17Z</time>
      </trkpt>
      <trkpt lat="42.57549" lon="8.83555">
        <ele>202.97546386719</ele>
        <time>2015-06-26T06:59:18Z</time>
      </trkpt>
      <trkpt lat="42.57549" lon="8.83555">
        <ele>202.01428222656</ele>
        <time>2015-06-26T06:59:19Z</time>
      </trkpt>
      <trkpt lat="42.57547" lon="8.83554">
        <ele>202.01428222656</ele>
        <time>2015-06-26T06:59:36Z</time>
      </trkpt>
      <trkpt lat="42.57541" lon="8.8355">
        <ele>202.49487304688</ele>
        <time>2015-06-26T06:59:58Z</time>
      </trkpt>
      <trkpt lat="42.57536" lon="8.83552">
        <ele>202.01428222656</ele>
        <time>2015-06-26T07:00:16Z</time>
      </trkpt>
      <trkpt lat="42.57532" lon="8.83558">
        <ele>202.97546386719</ele>
        <time>2015-06-26T07:00:21Z</time>
      </trkpt>
      <trkpt lat="42.57528" lon="8.8357">
        <ele>202.49487304688</ele>
        <time>2015-06-26T07:00:30Z</time>
      </trkpt>
      <trkpt lat="42.57535" lon="8.83587">
        <ele>204.89807128906</ele>
        <time>2015-06-26T07:00:43Z</time>
      </trkpt>
      <trkpt lat="42.57544" lon="8.83586">
        <ele>206.34008789062</ele>
        <time>2015-06-26T07:00:54Z</time>
      </trkpt>
      <trkpt lat="42.57552" lon="8.83585">
        <ele>205.85949707031</ele>
        <time>2015-06-26T07:01:02Z</time>
      </trkpt>
      <trkpt lat="42.57577" lon="8.83587">
        <ele>207.78210449219</ele>
        <time>2015-06-26T07:01:20Z</time>
      </trkpt>
      <trkpt lat="42.57592" lon="8.83586">
        <ele>207.78210449219</ele>
        <time>2015-06-26T07:01:32Z</time>
      </trkpt>
      <trkpt lat="42.57613" lon="8.83589">
        <ele>209.70483398438</ele>
        <time>2015-06-26T07:01:48Z</time>
      </trkpt>
      <trkpt lat="42.5763" lon="8.83595">
        <ele>210.666015625</ele>
        <time>2015-06-26T07:02:02Z</time>
      </trkpt>
      <trkpt lat="42.57641" lon="8.83604">
        <ele>211.62744140625</ele>
        <time>2015-06-26T07:02:19Z</time>
      </trkpt>
      <trkpt lat="42.57652" lon="8.83611">
        <ele>213.0693359375</ele>
        <time>2015-06-26T07:02:29Z</time>
      </trkpt>
      <trkpt lat="42.57665" lon="8.83613">
        <ele>212.58862304688</ele>
        <time>2015-06-26T07:02:41Z</time>
      </trkpt>
      <trkpt lat="42.57671" lon="8.83612">
        <ele>212.58862304688</ele>
        <time>2015-06-26T07:02:54Z</time>
      </trkpt>
      <trkpt lat="42.57683" lon="8.83612">
        <ele>214.03063964844</ele>
        <time>2015-06-26T07:03:06Z</time>
      </trkpt>
      <trkpt lat="42.57696" lon="8.83615">
        <ele>215.47265625</ele>
        <time>2015-06-26T07:03:18Z</time>
      </trkpt>
      <trkpt lat="42.57699" lon="8.83615">
        <ele>214.99194335938</ele>
        <time>2015-06-26T07:03:23Z</time>
      </trkpt>
      <trkpt lat="42.57715" lon="8.83604">
        <ele>214.99194335938</ele>
        <time>2015-06-26T07:03:42Z</time>
      </trkpt>
      <trkpt lat="42.5772" lon="8.83605">
        <ele>215.95324707031</ele>
        <time>2015-06-26T07:03:46Z</time>
      </trkpt>
      <trkpt lat="42.57732" lon="8.83606">
        <ele>215.47265625</ele>
        <time>2015-06-26T07:04:04Z</time>
      </trkpt>
      <trkpt lat="42.57737" lon="8.83598">
        <ele>215.47265625</ele>
        <time>2015-06-26T07:04:17Z</time>
      </trkpt>
      <trkpt lat="42.57744" lon="8.83601">
        <ele>215.95324707031</ele>
        <time>2015-06-26T07:04:31Z</time>
      </trkpt>
      <trkpt lat="42.57752" lon="8.83599">
        <ele>215.47265625</ele>
        <time>2015-06-26T07:04:57Z</time>
      </trkpt>
      <trkpt lat="42.57752" lon="8.83601">
        <ele>215.95324707031</ele>
        <time>2015-06-26T07:04:58Z</time>
      </trkpt>
      <trkpt lat="42.57755" lon="8.83612">
        <ele>217.39538574219</ele>
        <time>2015-06-26T07:05:03Z</time>
      </trkpt>
      <trkpt lat="42.57757" lon="8.83623">
        <ele>217.8759765625</ele>
        <time>2015-06-26T07:05:14Z</time>
      </trkpt>
      <trkpt lat="42.57757" lon="8.83627">
        <ele>218.83728027344</ele>
        <time>2015-06-26T07:05:30Z</time>
      </trkpt>
      <trkpt lat="42.57752" lon="8.83634">
        <ele>219.31799316406</ele>
        <time>2015-06-26T07:05:57Z</time>
      </trkpt>
      <trkpt lat="42.57745" lon="8.83634">
        <ele>221.24060058594</ele>
        <time>2015-06-26T07:06:07Z</time>
      </trkpt>
      <trkpt lat="42.57736" lon="8.83635">
        <ele>222.68249511719</ele>
        <time>2015-06-26T07:06:21Z</time>
      </trkpt>
      <trkpt lat="42.57733" lon="8.83637">
        <ele>224.12451171875</ele>
        <time>2015-06-26T07:06:24Z</time>
      </trkpt>
      <trkpt lat="42.57724" lon="8.83642">
        <ele>225.0859375</ele>
        <time>2015-06-26T07:06:35Z</time>
      </trkpt>
      <trkpt lat="42.57718" lon="8.8364">
        <ele>225.0859375</ele>
        <time>2015-06-26T07:06:51Z</time>
      </trkpt>
      <trkpt lat="42.57715" lon="8.83641">
        <ele>225.0859375</ele>
        <time>2015-06-26T07:07:03Z</time>
      </trkpt>
      <trkpt lat="42.57719" lon="8.83637">
        <ele>224.60522460938</ele>
        <time>2015-06-26T07:07:17Z</time>
      </trkpt>
      <trkpt lat="42.57712" lon="8.8364">
        <ele>224.60522460938</ele>
        <time>2015-06-26T07:07:31Z</time>
      </trkpt>
      <trkpt lat="42.577" lon="8.8365">
        <ele>224.60522460938</ele>
        <time>2015-06-26T07:07:42Z</time>
      </trkpt>
      <trkpt lat="42.57688" lon="8.83655">
        <ele>226.04711914062</ele>
        <time>2015-06-26T07:08:00Z</time>
      </trkpt>
      <trkpt lat="42.57686" lon="8.83657">
        <ele>225.56652832031</ele>
        <time>2015-06-26T07:08:06Z</time>
      </trkpt>
      <trkpt lat="42.57677" lon="8.83662">
        <ele>228.45043945312</ele>
        <time>2015-06-26T07:08:18Z</time>
      </trkpt>
      <trkpt lat="42.57676" lon="8.83661">
        <ele>228.45043945312</ele>
        <time>2015-06-26T07:08:19Z</time>
      </trkpt>
      <trkpt lat="42.57668" lon="8.83664">
        <ele>227.9697265625</ele>
        <time>2015-06-26T07:08:26Z</time>
      </trkpt>
      <trkpt lat="42.57658" lon="8.83655">
        <ele>230.373046875</ele>
        <time>2015-06-26T07:08:37Z</time>
      </trkpt>
      <trkpt lat="42.57649" lon="8.83648">
        <ele>230.85375976562</ele>
        <time>2015-06-26T07:08:50Z</time>
      </trkpt>
      <trkpt lat="42.57639" lon="8.83649">
        <ele>232.29577636719</ele>
        <time>2015-06-26T07:09:04Z</time>
      </trkpt>
      <trkpt lat="42.57634" lon="8.83651">
        <ele>233.25708007812</ele>
        <time>2015-06-26T07:09:19Z</time>
      </trkpt>
      <trkpt lat="42.57629" lon="8.83654">
        <ele>234.21838378906</ele>
        <time>2015-06-26T07:09:26Z</time>
      </trkpt>
      <trkpt lat="42.57624" lon="8.83657">
        <ele>236.14099121094</ele>
        <time>2015-06-26T07:09:32Z</time>
      </trkpt>
      <trkpt lat="42.57618" lon="8.83661">
        <ele>238.06359863281</ele>
        <time>2015-06-26T07:09:42Z</time>
      </trkpt>
      <trkpt lat="42.57614" lon="8.83671">
        <ele>239.02490234375</ele>
        <time>2015-06-26T07:09:54Z</time>
      </trkpt>
      <trkpt lat="42.57612" lon="8.83682">
        <ele>239.98620605469</ele>
        <time>2015-06-26T07:10:08Z</time>
      </trkpt>
      <trkpt lat="42.57613" lon="8.83685">
        <ele>239.98620605469</ele>
        <time>2015-06-26T07:10:13Z</time>
      </trkpt>
      <trkpt lat="42.57614" lon="8.83691">
        <ele>241.90893554688</ele>
        <time>2015-06-26T07:10:18Z</time>
      </trkpt>
      <trkpt lat="42.57619" lon="8.83698">
        <ele>244.31225585938</ele>
        <time>2015-06-26T07:10:30Z</time>
      </trkpt>
      <trkpt lat="42.57625" lon="8.83705">
        <ele>245.75415039062</ele>
        <time>2015-06-26T07:10:41Z</time>
      </trkpt>
      <trkpt lat="42.57627" lon="8.83706">
        <ele>246.23486328125</ele>
        <time>2015-06-26T07:10:45Z</time>
      </trkpt>
      <trkpt lat="42.57634" lon="8.83713">
        <ele>247.6767578125</ele>
        <time>2015-06-26T07:10:55Z</time>
      </trkpt>
      <trkpt lat="42.57644" lon="8.83721">
        <ele>250.56079101562</ele>
        <time>2015-06-26T07:11:09Z</time>
      </trkpt>
      <trkpt lat="42.57649" lon="8.8373">
        <ele>252.96398925781</ele>
        <time>2015-06-26T07:11:23Z</time>
      </trkpt>
      <trkpt lat="42.57639" lon="8.83732">
        <ele>256.32873535156</ele>
        <time>2015-06-26T07:11:39Z</time>
      </trkpt>
      <trkpt lat="42.57628" lon="8.83735">
        <ele>258.25134277344</ele>
        <time>2015-06-26T07:11:53Z</time>
      </trkpt>
      <trkpt lat="42.57622" lon="8.83743">
        <ele>259.693359375</ele>
        <time>2015-06-26T07:12:05Z</time>
      </trkpt>
      <trkpt lat="42.57619" lon="8.83745">
        <ele>261.13525390625</ele>
        <time>2015-06-26T07:12:08Z</time>
      </trkpt>
      <trkpt lat="42.57609" lon="8.83755">
        <ele>263.05786132812</ele>
        <time>2015-06-26T07:12:25Z</time>
      </trkpt>
      <trkpt lat="42.57609" lon="8.83757">
        <ele>263.05786132812</ele>
        <time>2015-06-26T07:12:39Z</time>
      </trkpt>
      <trkpt lat="42.57608" lon="8.83763">
        <ele>263.53857421875</ele>
        <time>2015-06-26T07:13:17Z</time>
      </trkpt>
      <trkpt lat="42.57604" lon="8.83779">
        <ele>267.38391113281</ele>
        <time>2015-06-26T07:13:33Z</time>
      </trkpt>
      <trkpt lat="42.57597" lon="8.83782">
        <ele>267.86450195312</ele>
        <time>2015-06-26T07:13:48Z</time>
      </trkpt>
      <trkpt lat="42.57598" lon="8.83784">
        <ele>267.86450195312</ele>
        <time>2015-06-26T07:13:55Z</time>
      </trkpt>
      <trkpt lat="42.57594" lon="8.83802">
        <ele>270.26770019531</ele>
        <time>2015-06-26T07:14:09Z</time>
      </trkpt>
      <trkpt lat="42.57592" lon="8.83807">
        <ele>270.74841308594</ele>
        <time>2015-06-26T07:14:13Z</time>
      </trkpt>
      <trkpt lat="42.5759" lon="8.83814">
        <ele>273.15185546875</ele>
        <time>2015-06-26T07:14:21Z</time>
      </trkpt>
      <trkpt lat="42.5759" lon="8.83822">
        <ele>275.07446289062</ele>
        <time>2015-06-26T07:14:33Z</time>
      </trkpt>
      <trkpt lat="42.57589" lon="8.83827">
        <ele>276.9970703125</ele>
        <time>2015-06-26T07:14:49Z</time>
      </trkpt>
      <trkpt lat="42.57584" lon="8.83834">
        <ele>276.51635742188</ele>
        <time>2015-06-26T07:15:10Z</time>
      </trkpt>
      <trkpt lat="42.57581" lon="8.83848">
        <ele>276.9970703125</ele>
        <time>2015-06-26T07:15:20Z</time>
      </trkpt>
      <trkpt lat="42.57581" lon="8.83854">
        <ele>277.47766113281</ele>
        <time>2015-06-26T07:15:24Z</time>
      </trkpt>
      <trkpt lat="42.57577" lon="8.83877">
        <ele>279.880859375</ele>
        <time>2015-06-26T07:15:42Z</time>
      </trkpt>
      <trkpt lat="42.57576" lon="8.83881">
        <ele>279.880859375</ele>
        <time>2015-06-26T07:15:45Z</time>
      </trkpt>
      <trkpt lat="42.57569" lon="8.83889">
        <ele>281.32299804688</ele>
        <time>2015-06-26T07:15:57Z</time>
      </trkpt>
      <trkpt lat="42.5755" lon="8.83895">
        <ele>283.72619628906</ele>
        <time>2015-06-26T07:16:16Z</time>
      </trkpt>
      <trkpt lat="42.57548" lon="8.83901">
        <ele>286.61022949219</ele>
        <time>2015-06-26T07:16:30Z</time>
      </trkpt>
      <trkpt lat="42.57543" lon="8.83903">
        <ele>287.0908203125</ele>
        <time>2015-06-26T07:16:39Z</time>
      </trkpt>
      <trkpt lat="42.5754" lon="8.83903">
        <ele>289.01354980469</ele>
        <time>2015-06-26T07:16:43Z</time>
      </trkpt>
      <trkpt lat="42.57541" lon="8.8391">
        <ele>291.41674804688</ele>
        <time>2015-06-26T07:16:55Z</time>
      </trkpt>
      <trkpt lat="42.57541" lon="8.8391">
        <ele>291.41674804688</ele>
        <time>2015-06-26T07:16:56Z</time>
      </trkpt>
      <trkpt lat="42.57553" lon="8.83917">
        <ele>294.78137207031</ele>
        <time>2015-06-26T07:17:10Z</time>
      </trkpt>
      <trkpt lat="42.57563" lon="8.83921">
        <ele>295.74267578125</ele>
        <time>2015-06-26T07:17:21Z</time>
      </trkpt>
      <trkpt lat="42.57562" lon="8.8393">
        <ele>297.66540527344</ele>
        <time>2015-06-26T07:17:33Z</time>
      </trkpt>
      <trkpt lat="42.57562" lon="8.83939">
        <ele>300.54931640625</ele>
        <time>2015-06-26T07:17:46Z</time>
      </trkpt>
      <trkpt lat="42.57566" lon="8.83947">
        <ele>301.51062011719</ele>
        <time>2015-06-26T07:17:59Z</time>
      </trkpt>
      <trkpt lat="42.57573" lon="8.83949">
        <ele>303.91394042969</ele>
        <time>2015-06-26T07:18:11Z</time>
      </trkpt>
      <trkpt lat="42.57579" lon="8.83951">
        <ele>305.83666992188</ele>
        <time>2015-06-26T07:18:20Z</time>
      </trkpt>
      <trkpt lat="42.57582" lon="8.8395">
        <ele>305.35595703125</ele>
        <time>2015-06-26T07:18:23Z</time>
      </trkpt>
      <trkpt lat="42.57593" lon="8.83955">
        <ele>308.72045898438</ele>
        <time>2015-06-26T07:18:37Z</time>
      </trkpt>
      <trkpt lat="42.57591" lon="8.83961">
        <ele>310.16247558594</ele>
        <time>2015-06-26T07:18:47Z</time>
      </trkpt>
      <trkpt lat="42.57581" lon="8.83965">
        <ele>313.52722167969</ele>
        <time>2015-06-26T07:19:03Z</time>
      </trkpt>
      <trkpt lat="42.57589" lon="8.83971">
        <ele>314.48840332031</ele>
        <time>2015-06-26T07:19:17Z</time>
      </trkpt>
      <trkpt lat="42.57596" lon="8.83976">
        <ele>316.89172363281</ele>
        <time>2015-06-26T07:19:32Z</time>
      </trkpt>
      <trkpt lat="42.57593" lon="8.8398">
        <ele>317.85302734375</ele>
        <time>2015-06-26T07:19:47Z</time>
      </trkpt>
      <trkpt lat="42.57597" lon="8.8398">
        <ele>318.81433105469</ele>
        <time>2015-06-26T07:19:50Z</time>
      </trkpt>
      <trkpt lat="42.57594" lon="8.83987">
        <ele>320.73706054688</ele>
        <time>2015-06-26T07:20:01Z</time>
      </trkpt>
      <trkpt lat="42.57602" lon="8.83993">
        <ele>323.14038085938</ele>
        <time>2015-06-26T07:20:14Z</time>
      </trkpt>
      <trkpt lat="42.57607" lon="8.84007">
        <ele>325.54357910156</ele>
        <time>2015-06-26T07:20:29Z</time>
      </trkpt>
      <trkpt lat="42.57614" lon="8.84017">
        <ele>328.42761230469</ele>
        <time>2015-06-26T07:20:44Z</time>
      </trkpt>
      <trkpt lat="42.57615" lon="8.84023">
        <ele>329.38891601562</ele>
        <time>2015-06-26T07:21:01Z</time>
      </trkpt>
      <trkpt lat="42.57611" lon="8.84025">
        <ele>330.35021972656</ele>
        <time>2015-06-26T07:21:07Z</time>
      </trkpt>
      <trkpt lat="42.57601" lon="8.84022">
        <ele>331.3115234375</ele>
        <time>2015-06-26T07:21:20Z</time>
      </trkpt>
      <trkpt lat="42.57597" lon="8.84027">
        <ele>332.75354003906</ele>
        <time>2015-06-26T07:21:38Z</time>
      </trkpt>
      <trkpt lat="42.576" lon="8.84037">
        <ele>334.19543457031</ele>
        <time>2015-06-26T07:21:52Z</time>
      </trkpt>
      <trkpt lat="42.57606" lon="8.84047">
        <ele>337.56005859375</ele>
        <time>2015-06-26T07:22:07Z</time>
      </trkpt>
      <trkpt lat="42.57607" lon="8.84055">
        <ele>338.04077148438</ele>
        <time>2015-06-26T07:22:14Z</time>
      </trkpt>
      <trkpt lat="42.57601" lon="8.84057">
        <ele>340.44409179688</ele>
        <time>2015-06-26T07:22:23Z</time>
      </trkpt>
      <trkpt lat="42.57598" lon="8.84053">
        <ele>341.4052734375</ele>
        <time>2015-06-26T07:22:28Z</time>
      </trkpt>
      <trkpt lat="42.57592" lon="8.8405">
        <ele>342.84729003906</ele>
        <time>2015-06-26T07:22:44Z</time>
      </trkpt>
      <trkpt lat="42.57595" lon="8.84067">
        <ele>346.21203613281</ele>
        <time>2015-06-26T07:23:00Z</time>
      </trkpt>
      <trkpt lat="42.576" lon="8.84085">
        <ele>348.615234375</ele>
        <time>2015-06-26T07:23:15Z</time>
      </trkpt>
      <trkpt lat="42.57601" lon="8.84097">
        <ele>350.53784179688</ele>
        <time>2015-06-26T07:23:29Z</time>
      </trkpt>
      <trkpt lat="42.57602" lon="8.84109">
        <ele>353.421875</ele>
        <time>2015-06-26T07:23:42Z</time>
      </trkpt>
      <trkpt lat="42.57604" lon="8.84118">
        <ele>354.38317871094</ele>
        <time>2015-06-26T07:23:51Z</time>
      </trkpt>
      <trkpt lat="42.57604" lon="8.84124">
        <ele>356.30578613281</ele>
        <time>2015-06-26T07:23:58Z</time>
      </trkpt>
      <trkpt lat="42.57604" lon="8.8413">
        <ele>357.26708984375</ele>
        <time>2015-06-26T07:24:04Z</time>
      </trkpt>
      <trkpt lat="42.576" lon="8.84141">
        <ele>360.15112304688</ele>
        <time>2015-06-26T07:24:21Z</time>
      </trkpt>
      <trkpt lat="42.576" lon="8.84153">
        <ele>362.55432128906</ele>
        <time>2015-06-26T07:24:31Z</time>
      </trkpt>
      <trkpt lat="42.576" lon="8.8416">
        <ele>363.99633789062</ele>
        <time>2015-06-26T07:24:37Z</time>
      </trkpt>
      <trkpt lat="42.57589" lon="8.84147">
        <ele>365.43835449219</ele>
        <time>2015-06-26T07:24:54Z</time>
      </trkpt>
      <trkpt lat="42.57583" lon="8.84143">
        <ele>366.88024902344</ele>
        <time>2015-06-26T07:25:11Z</time>
      </trkpt>
      <trkpt lat="42.57583" lon="8.84147">
        <ele>367.84155273438</ele>
        <time>2015-06-26T07:25:15Z</time>
      </trkpt>
      <trkpt lat="42.57583" lon="8.84151">
        <ele>369.28369140625</ele>
        <time>2015-06-26T07:25:18Z</time>
      </trkpt>
      <trkpt lat="42.57587" lon="8.84171">
        <ele>371.20629882812</ele>
        <time>2015-06-26T07:25:35Z</time>
      </trkpt>
      <trkpt lat="42.57589" lon="8.84183">
        <ele>371.68688964844</ele>
        <time>2015-06-26T07:25:48Z</time>
      </trkpt>
      <trkpt lat="42.57589" lon="8.84196">
        <ele>374.57080078125</ele>
        <time>2015-06-26T07:26:02Z</time>
      </trkpt>
      <trkpt lat="42.57588" lon="8.84214">
        <ele>377.45483398438</ele>
        <time>2015-06-26T07:26:19Z</time>
      </trkpt>
      <trkpt lat="42.57587" lon="8.8423">
        <ele>380.81945800781</ele>
        <time>2015-06-26T07:26:34Z</time>
      </trkpt>
      <trkpt lat="42.57587" lon="8.84241">
        <ele>383.22265625</ele>
        <time>2015-06-26T07:26:46Z</time>
      </trkpt>
      <trkpt lat="42.57581" lon="8.84252">
        <ele>384.66479492188</ele>
        <time>2015-06-26T07:27:00Z</time>
      </trkpt>
      <trkpt lat="42.57583" lon="8.84265">
        <ele>387.06799316406</ele>
        <time>2015-06-26T07:27:14Z</time>
      </trkpt>
      <trkpt lat="42.57583" lon="8.84266">
        <ele>387.54858398438</ele>
        <time>2015-06-26T07:27:15Z</time>
      </trkpt>
      <trkpt lat="42.57584" lon="8.84271">
        <ele>388.029296875</ele>
        <time>2015-06-26T07:27:20Z</time>
      </trkpt>
      <trkpt lat="42.57588" lon="8.84279">
        <ele>388.51000976562</ele>
        <time>2015-06-26T07:27:30Z</time>
      </trkpt>
      <trkpt lat="42.57589" lon="8.84285">
        <ele>388.51000976562</ele>
        <time>2015-06-26T07:27:34Z</time>
      </trkpt>
      <trkpt lat="42.57594" lon="8.84311">
        <ele>389.47119140625</ele>
        <time>2015-06-26T07:27:54Z</time>
      </trkpt>
      <trkpt lat="42.57596" lon="8.84333">
        <ele>391.87451171875</ele>
        <time>2015-06-26T07:28:12Z</time>
      </trkpt>
      <trkpt lat="42.57597" lon="8.84346">
        <ele>392.8359375</ele>
        <time>2015-06-26T07:28:23Z</time>
      </trkpt>
      <trkpt lat="42.57601" lon="8.84369">
        <ele>395.23913574219</ele>
        <time>2015-06-26T07:28:42Z</time>
      </trkpt>
      <trkpt lat="42.576" lon="8.84389">
        <ele>395.71984863281</ele>
        <time>2015-06-26T07:28:56Z</time>
      </trkpt>
      <trkpt lat="42.57598" lon="8.84406">
        <ele>398.12316894531</ele>
        <time>2015-06-26T07:29:09Z</time>
      </trkpt>
      <trkpt lat="42.576" lon="8.8441">
        <ele>399.08435058594</ele>
        <time>2015-06-26T07:29:13Z</time>
      </trkpt>
      <trkpt lat="42.57601" lon="8.84411">
        <ele>398.60375976562</ele>
        <time>2015-06-26T07:29:15Z</time>
      </trkpt>
      <trkpt lat="42.57599" lon="8.84419">
        <ele>399.08435058594</ele>
        <time>2015-06-26T07:29:21Z</time>
      </trkpt>
      <trkpt lat="42.576" lon="8.84441">
        <ele>399.56506347656</ele>
        <time>2015-06-26T07:29:37Z</time>
      </trkpt>
      <trkpt lat="42.57599" lon="8.84466">
        <ele>400.0458984375</ele>
        <time>2015-06-26T07:29:55Z</time>
      </trkpt>
      <trkpt lat="42.57592" lon="8.84497">
        <ele>401.00708007812</ele>
        <time>2015-06-26T07:30:16Z</time>
      </trkpt>
      <trkpt lat="42.57589" lon="8.84521">
        <ele>400.52648925781</ele>
        <time>2015-06-26T07:30:31Z</time>
      </trkpt>
      <trkpt lat="42.57585" lon="8.84537">
        <ele>401.00708007812</ele>
        <time>2015-06-26T07:30:43Z</time>
      </trkpt>
      <trkpt lat="42.57584" lon="8.84564">
        <ele>401.00708007812</ele>
        <time>2015-06-26T07:30:59Z</time>
      </trkpt>
      <trkpt lat="42.57579" lon="8.84603">
        <ele>400.0458984375</ele>
        <time>2015-06-26T07:31:23Z</time>
      </trkpt>
      <trkpt lat="42.57575" lon="8.84628">
        <ele>401.00708007812</ele>
        <time>2015-06-26T07:31:40Z</time>
      </trkpt>
      <trkpt lat="42.57574" lon="8.8463">
        <ele>401.48779296875</ele>
        <time>2015-06-26T07:31:52Z</time>
      </trkpt>
      <trkpt lat="42.57574" lon="8.84631">
        <ele>400.52648925781</ele>
        <time>2015-06-26T07:31:58Z</time>
      </trkpt>
      <trkpt lat="42.57571" lon="8.84657">
        <ele>400.0458984375</ele>
        <time>2015-06-26T07:32:17Z</time>
      </trkpt>
      <trkpt lat="42.57571" lon="8.84687">
        <ele>397.64245605469</ele>
        <time>2015-06-26T07:32:36Z</time>
      </trkpt>
      <trkpt lat="42.57572" lon="8.84715">
        <ele>397.64245605469</ele>
        <time>2015-06-26T07:32:53Z</time>
      </trkpt>
      <trkpt lat="42.57569" lon="8.84751">
        <ele>397.16174316406</ele>
        <time>2015-06-26T07:33:15Z</time>
      </trkpt>
      <trkpt lat="42.57569" lon="8.84783">
        <ele>395.71984863281</ele>
        <time>2015-06-26T07:33:34Z</time>
      </trkpt>
      <trkpt lat="42.57562" lon="8.84811">
        <ele>395.23913574219</ele>
        <time>2015-06-26T07:33:52Z</time>
      </trkpt>
      <trkpt lat="42.5756" lon="8.84822">
        <ele>395.23913574219</ele>
        <time>2015-06-26T07:33:59Z</time>
      </trkpt>
      <trkpt lat="42.57551" lon="8.84852">
        <ele>394.27795410156</ele>
        <time>2015-06-26T07:34:18Z</time>
      </trkpt>
      <trkpt lat="42.57549" lon="8.84856">
        <ele>394.27795410156</ele>
        <time>2015-06-26T07:34:22Z</time>
      </trkpt>
      <trkpt lat="42.57548" lon="8.84862">
        <ele>394.75854492188</ele>
        <time>2015-06-26T07:34:33Z</time>
      </trkpt>
      <trkpt lat="42.57548" lon="8.84854">
        <ele>395.23913574219</ele>
        <time>2015-06-26T07:34:40Z</time>
      </trkpt>
      <trkpt lat="42.57545" lon="8.84851">
        <ele>396.20056152344</ele>
        <time>2015-06-26T07:34:45Z</time>
      </trkpt>
      <trkpt lat="42.57538" lon="8.84844">
        <ele>396.68115234375</ele>
        <time>2015-06-26T07:34:59Z</time>
      </trkpt>
      <trkpt lat="42.5754" lon="8.84848">
        <ele>396.68115234375</ele>
        <time>2015-06-26T07:35:17Z</time>
      </trkpt>
      <trkpt lat="42.57545" lon="8.84855">
        <ele>395.71984863281</ele>
        <time>2015-06-26T07:35:25Z</time>
      </trkpt>
      <trkpt lat="42.57548" lon="8.84858">
        <ele>396.20056152344</ele>
        <time>2015-06-26T07:35:29Z</time>
      </trkpt>
      <trkpt lat="42.57553" lon="8.84867">
        <ele>394.75854492188</ele>
        <time>2015-06-26T07:35:41Z</time>
      </trkpt>
      <trkpt lat="42.57553" lon="8.84866">
        <ele>394.27795410156</ele>
        <time>2015-06-26T07:35:44Z</time>
      </trkpt>
      <trkpt lat="42.57551" lon="8.84859">
        <ele>394.75854492188</ele>
        <time>2015-06-26T07:35:49Z</time>
      </trkpt>
      <trkpt lat="42.57557" lon="8.8483">
        <ele>395.23913574219</ele>
        <time>2015-06-26T07:36:09Z</time>
      </trkpt>
      <trkpt lat="42.57566" lon="8.84805">
        <ele>395.71984863281</ele>
        <time>2015-06-26T07:36:29Z</time>
      </trkpt>
      <trkpt lat="42.57571" lon="8.84784">
        <ele>397.16174316406</ele>
        <time>2015-06-26T07:36:44Z</time>
      </trkpt>
      <trkpt lat="42.57572" lon="8.84767">
        <ele>397.16174316406</ele>
        <time>2015-06-26T07:36:55Z</time>
      </trkpt>
      <trkpt lat="42.57572" lon="8.84729">
        <ele>397.16174316406</ele>
        <time>2015-06-26T07:37:17Z</time>
      </trkpt>
      <trkpt lat="42.57571" lon="8.84705">
        <ele>398.12316894531</ele>
        <time>2015-06-26T07:37:32Z</time>
      </trkpt>
      <trkpt lat="42.5757" lon="8.8468">
        <ele>399.56506347656</ele>
        <time>2015-06-26T07:37:47Z</time>
      </trkpt>
      <trkpt lat="42.57571" lon="8.84672">
        <ele>400.0458984375</ele>
        <time>2015-06-26T07:37:53Z</time>
      </trkpt>
      <trkpt lat="42.57571" lon="8.84652">
        <ele>400.52648925781</ele>
        <time>2015-06-26T07:38:05Z</time>
      </trkpt>
      <trkpt lat="42.57571" lon="8.84647">
        <ele>401.00708007812</ele>
        <time>2015-06-26T07:38:08Z</time>
      </trkpt>
      <trkpt lat="42.57575" lon="8.84629">
        <ele>401.96850585938</ele>
        <time>2015-06-26T07:38:24Z</time>
      </trkpt>
      <trkpt lat="42.57589" lon="8.84621">
        <ele>402.44909667969</ele>
        <time>2015-06-26T07:38:37Z</time>
      </trkpt>
      <trkpt lat="42.57611" lon="8.84602">
        <ele>404.37170410156</ele>
        <time>2015-06-26T07:38:59Z</time>
      </trkpt>
      <trkpt lat="42.57616" lon="8.84589">
        <ele>406.29431152344</ele>
        <time>2015-06-26T07:39:16Z</time>
      </trkpt>
      <trkpt lat="42.5763" lon="8.84569">
        <ele>406.29431152344</ele>
        <time>2015-06-26T07:39:34Z</time>
      </trkpt>
      <trkpt lat="42.57638" lon="8.84558">
        <ele>406.77490234375</ele>
        <time>2015-06-26T07:39:41Z</time>
      </trkpt>
      <trkpt lat="42.57641" lon="8.84552">
        <ele>406.77490234375</ele>
        <time>2015-06-26T07:39:45Z</time>
      </trkpt>
      <trkpt lat="42.57654" lon="8.84523">
        <ele>408.21704101562</ele>
        <time>2015-06-26T07:40:05Z</time>
      </trkpt>
      <trkpt lat="42.57672" lon="8.84498">
        <ele>408.69763183594</ele>
        <time>2015-06-26T07:40:26Z</time>
      </trkpt>
      <trkpt lat="42.57677" lon="8.84492">
        <ele>409.17834472656</ele>
        <time>2015-06-26T07:40:31Z</time>
      </trkpt>
      <trkpt lat="42.57683" lon="8.84489">
        <ele>409.65905761719</ele>
        <time>2015-06-26T07:40:37Z</time>
      </trkpt>
      <trkpt lat="42.57695" lon="8.84501">
        <ele>410.1396484375</ele>
        <time>2015-06-26T07:40:53Z</time>
      </trkpt>
      <trkpt lat="42.57703" lon="8.84514">
        <ele>412.54284667969</ele>
        <time>2015-06-26T07:41:09Z</time>
      </trkpt>
      <trkpt lat="42.57716" lon="8.84534">
        <ele>414.46545410156</ele>
        <time>2015-06-26T07:41:28Z</time>
      </trkpt>
      <trkpt lat="42.57729" lon="8.84543">
        <ele>415.90747070312</ele>
        <time>2015-06-26T07:41:45Z</time>
      </trkpt>
      <trkpt lat="42.57743" lon="8.84541">
        <ele>419.27221679688</ele>
        <time>2015-06-26T07:42:01Z</time>
      </trkpt>
      <trkpt lat="42.57756" lon="8.84551">
        <ele>421.19482421875</ele>
        <time>2015-06-26T07:42:19Z</time>
      </trkpt>
      <trkpt lat="42.57758" lon="8.84554">
        <ele>421.67541503906</ele>
        <time>2015-06-26T07:42:49Z</time>
      </trkpt>
      <trkpt lat="42.57763" lon="8.84555">
        <ele>421.19482421875</ele>
        <time>2015-06-26T07:43:03Z</time>
      </trkpt>
      <trkpt lat="42.57773" lon="8.8456">
        <ele>424.07873535156</ele>
        <time>2015-06-26T07:43:19Z</time>
      </trkpt>
      <trkpt lat="42.57783" lon="8.84553">
        <ele>426.48205566406</ele>
        <time>2015-06-26T07:43:35Z</time>
      </trkpt>
      <trkpt lat="42.57786" lon="8.84552">
        <ele>427.92395019531</ele>
        <time>2015-06-26T07:43:39Z</time>
      </trkpt>
      <trkpt lat="42.57805" lon="8.8454">
        <ele>429.84655761719</ele>
        <time>2015-06-26T07:43:59Z</time>
      </trkpt>
      <trkpt lat="42.57815" lon="8.84535">
        <ele>432.73071289062</ele>
        <time>2015-06-26T07:44:13Z</time>
      </trkpt>
      <trkpt lat="42.57826" lon="8.84528">
        <ele>433.21130371094</ele>
        <time>2015-06-26T07:44:29Z</time>
      </trkpt>
      <trkpt lat="42.57837" lon="8.84516">
        <ele>435.61450195312</ele>
        <time>2015-06-26T07:44:47Z</time>
      </trkpt>
      <trkpt lat="42.57848" lon="8.84512">
        <ele>438.97912597656</ele>
        <time>2015-06-26T07:45:01Z</time>
      </trkpt>
      <trkpt lat="42.57851" lon="8.84511">
        <ele>439.45971679688</ele>
        <time>2015-06-26T07:45:05Z</time>
      </trkpt>
      <trkpt lat="42.57857" lon="8.84504">
        <ele>440.42126464844</ele>
        <time>2015-06-26T07:45:20Z</time>
      </trkpt>
      <trkpt lat="42.57868" lon="8.84492">
        <ele>442.82446289062</ele>
        <time>2015-06-26T07:45:36Z</time>
      </trkpt>
      <trkpt lat="42.57868" lon="8.84487">
        <ele>443.30505371094</ele>
        <time>2015-06-26T07:45:40Z</time>
      </trkpt>
      <trkpt lat="42.57869" lon="8.84465">
        <ele>444.26647949219</ele>
        <time>2015-06-26T07:45:57Z</time>
      </trkpt>
      <trkpt lat="42.57872" lon="8.84457">
        <ele>445.70837402344</ele>
        <time>2015-06-26T07:46:11Z</time>
      </trkpt>
      <trkpt lat="42.57878" lon="8.84458">
        <ele>448.11181640625</ele>
        <time>2015-06-26T07:46:20Z</time>
      </trkpt>
      <trkpt lat="42.57885" lon="8.84452">
        <ele>449.5537109375</ele>
        <time>2015-06-26T07:46:32Z</time>
      </trkpt>
      <trkpt lat="42.57886" lon="8.84451">
        <ele>449.5537109375</ele>
        <time>2015-06-26T07:46:33Z</time>
      </trkpt>
      <trkpt lat="42.57903" lon="8.84434">
        <ele>451.47631835938</ele>
        <time>2015-06-26T07:46:53Z</time>
      </trkpt>
      <trkpt lat="42.5792" lon="8.84407">
        <ele>452.43762207031</ele>
        <time>2015-06-26T07:47:14Z</time>
      </trkpt>
      <trkpt lat="42.57925" lon="8.84375">
        <ele>452.43762207031</ele>
        <time>2015-06-26T07:47:33Z</time>
      </trkpt>
      <trkpt lat="42.57924" lon="8.84343">
        <ele>452.91821289062</ele>
        <time>2015-06-26T07:47:53Z</time>
      </trkpt>
      <trkpt lat="42.5792" lon="8.84324">
        <ele>456.28295898438</ele>
        <time>2015-06-26T07:48:09Z</time>
      </trkpt>
      <trkpt lat="42.57917" lon="8.8431">
        <ele>458.68615722656</ele>
        <time>2015-06-26T07:48:27Z</time>
      </trkpt>
      <trkpt lat="42.57919" lon="8.84312">
        <ele>459.16687011719</ele>
        <time>2015-06-26T07:49:16Z</time>
      </trkpt>
      <trkpt lat="42.57918" lon="8.84311">
        <ele>459.16687011719</ele>
        <time>2015-06-26T07:49:46Z</time>
      </trkpt>
      <trkpt lat="42.57919" lon="8.84309">
        <ele>459.64758300781</ele>
        <time>2015-06-26T07:49:49Z</time>
      </trkpt>
      <trkpt lat="42.57916" lon="8.84294">
        <ele>462.53137207031</ele>
        <time>2015-06-26T07:50:02Z</time>
      </trkpt>
      <trkpt lat="42.57921" lon="8.84271">
        <ele>460.60876464844</ele>
        <time>2015-06-26T07:50:19Z</time>
      </trkpt>
      <trkpt lat="42.57923" lon="8.84263">
        <ele>461.08947753906</ele>
        <time>2015-06-26T07:50:34Z</time>
      </trkpt>
      <trkpt lat="42.57926" lon="8.84247">
        <ele>461.08947753906</ele>
        <time>2015-06-26T07:50:58Z</time>
      </trkpt>
      <trkpt lat="42.57934" lon="8.84233">
        <ele>458.68615722656</ele>
        <time>2015-06-26T07:51:12Z</time>
      </trkpt>
      <trkpt lat="42.57941" lon="8.84216">
        <ele>458.20556640625</ele>
        <time>2015-06-26T07:51:28Z</time>
      </trkpt>
      <trkpt lat="42.57949" lon="8.84193">
        <ele>456.76354980469</ele>
        <time>2015-06-26T07:51:47Z</time>
      </trkpt>
      <trkpt lat="42.57955" lon="8.84176">
        <ele>454.8408203125</ele>
        <time>2015-06-26T07:52:02Z</time>
      </trkpt>
      <trkpt lat="42.57963" lon="8.84153">
        <ele>452.91821289062</ele>
        <time>2015-06-26T07:52:21Z</time>
      </trkpt>
      <trkpt lat="42.57963" lon="8.84152">
        <ele>452.91821289062</ele>
        <time>2015-06-26T07:52:47Z</time>
      </trkpt>
      <trkpt lat="42.57964" lon="8.84148">
        <ele>452.43762207031</ele>
        <time>2015-06-26T07:53:01Z</time>
      </trkpt>
      <trkpt lat="42.57978" lon="8.84128">
        <ele>451.47631835938</ele>
        <time>2015-06-26T07:53:20Z</time>
      </trkpt>
      <trkpt lat="42.57983" lon="8.84119">
        <ele>451.47631835938</ele>
        <time>2015-06-26T07:53:39Z</time>
      </trkpt>
      <trkpt lat="42.57994" lon="8.84111">
        <ele>450.51501464844</ele>
        <time>2015-06-26T07:53:56Z</time>
      </trkpt>
      <trkpt lat="42.57997" lon="8.84109">
        <ele>450.51501464844</ele>
        <time>2015-06-26T07:53:59Z</time>
      </trkpt>
      <trkpt lat="42.58014" lon="8.84093">
        <ele>448.11181640625</ele>
        <time>2015-06-26T07:54:23Z</time>
      </trkpt>
      <trkpt lat="42.58022" lon="8.84087">
        <ele>447.15026855469</ele>
        <time>2015-06-26T07:54:38Z</time>
      </trkpt>
      <trkpt lat="42.5803" lon="8.84081">
        <ele>446.66967773438</ele>
        <time>2015-06-26T07:55:16Z</time>
      </trkpt>
      <trkpt lat="42.58048" lon="8.84068">
        <ele>444.26647949219</ele>
        <time>2015-06-26T07:55:33Z</time>
      </trkpt>
      <trkpt lat="42.58058" lon="8.84056">
        <ele>443.30505371094</ele>
        <time>2015-06-26T07:55:51Z</time>
      </trkpt>
      <trkpt lat="42.5806" lon="8.84054">
        <ele>443.78576660156</ele>
        <time>2015-06-26T07:56:14Z</time>
      </trkpt>
      <trkpt lat="42.58075" lon="8.84039">
        <ele>443.30505371094</ele>
        <time>2015-06-26T07:56:31Z</time>
      </trkpt>
      <trkpt lat="42.58082" lon="8.84028">
        <ele>442.34387207031</ele>
        <time>2015-06-26T07:56:42Z</time>
      </trkpt>
      <trkpt lat="42.5809" lon="8.84019">
        <ele>440.42126464844</ele>
        <time>2015-06-26T07:56:56Z</time>
      </trkpt>
      <trkpt lat="42.58094" lon="8.84018">
        <ele>439.9404296875</ele>
        <time>2015-06-26T07:57:01Z</time>
      </trkpt>
      <trkpt lat="42.58095" lon="8.84012">
        <ele>438.01782226562</ele>
        <time>2015-06-26T07:57:16Z</time>
      </trkpt>
      <trkpt lat="42.581" lon="8.84006">
        <ele>436.57592773438</ele>
        <time>2015-06-26T07:57:30Z</time>
      </trkpt>
      <trkpt lat="42.58106" lon="8.83995">
        <ele>433.21130371094</ele>
        <time>2015-06-26T07:57:45Z</time>
      </trkpt>
      <trkpt lat="42.58122" lon="8.8399">
        <ele>432.25</ele>
        <time>2015-06-26T07:58:04Z</time>
      </trkpt>
      <trkpt lat="42.5813" lon="8.83978">
        <ele>429.36596679688</ele>
        <time>2015-06-26T07:58:22Z</time>
      </trkpt>
      <trkpt lat="42.58139" lon="8.83974">
        <ele>426.96276855469</ele>
        <time>2015-06-26T07:58:38Z</time>
      </trkpt>
      <trkpt lat="42.58138" lon="8.83974">
        <ele>426.96276855469</ele>
        <time>2015-06-26T07:58:56Z</time>
      </trkpt>
      <trkpt lat="42.58136" lon="8.83975">
        <ele>427.92395019531</ele>
        <time>2015-06-26T07:59:12Z</time>
      </trkpt>
      <trkpt lat="42.5814" lon="8.83974">
        <ele>427.92395019531</ele>
        <time>2015-06-26T07:59:24Z</time>
      </trkpt>
      <trkpt lat="42.58147" lon="8.83969">
        <ele>426.48205566406</ele>
        <time>2015-06-26T07:59:42Z</time>
      </trkpt>
      <trkpt lat="42.5816" lon="8.83965">
        <ele>423.11743164062</ele>
        <time>2015-06-26T07:59:57Z</time>
      </trkpt>
      <trkpt lat="42.58161" lon="8.83965">
        <ele>423.11743164062</ele>
        <time>2015-06-26T07:59:58Z</time>
      </trkpt>
      <trkpt lat="42.58179" lon="8.83958">
        <ele>422.15600585938</ele>
        <time>2015-06-26T08:00:18Z</time>
      </trkpt>
      <trkpt lat="42.58188" lon="8.83949">
        <ele>421.67541503906</ele>
        <time>2015-06-26T08:00:34Z</time>
      </trkpt>
      <trkpt lat="42.58203" lon="8.8394">
        <ele>421.19482421875</ele>
        <time>2015-06-26T08:00:49Z</time>
      </trkpt>
      <trkpt lat="42.58216" lon="8.83938">
        <ele>420.2333984375</ele>
        <time>2015-06-26T08:01:08Z</time>
      </trkpt>
      <trkpt lat="42.58224" lon="8.83936">
        <ele>420.2333984375</ele>
        <time>2015-06-26T08:01:22Z</time>
      </trkpt>
      <trkpt lat="42.58241" lon="8.8393">
        <ele>419.27221679688</ele>
        <time>2015-06-26T08:01:39Z</time>
      </trkpt>
      <trkpt lat="42.5825" lon="8.83929">
        <ele>418.79150390625</ele>
        <time>2015-06-26T08:01:53Z</time>
      </trkpt>
      <trkpt lat="42.58251" lon="8.83929">
        <ele>418.31079101562</ele>
        <time>2015-06-26T08:02:08Z</time>
      </trkpt>
      <trkpt lat="42.58251" lon="8.83931">
        <ele>418.31079101562</ele>
        <time>2015-06-26T08:02:22Z</time>
      </trkpt>
      <trkpt lat="42.58254" lon="8.83931">
        <ele>419.75280761719</ele>
        <time>2015-06-26T08:02:46Z</time>
      </trkpt>
      <trkpt lat="42.58261" lon="8.83931">
        <ele>416.86889648438</ele>
        <time>2015-06-26T08:02:57Z</time>
      </trkpt>
      <trkpt lat="42.58273" lon="8.8393">
        <ele>413.98486328125</ele>
        <time>2015-06-26T08:03:11Z</time>
      </trkpt>
      <trkpt lat="42.58278" lon="8.83928">
        <ele>411.10095214844</ele>
        <time>2015-06-26T08:03:24Z</time>
      </trkpt>
      <trkpt lat="42.58278" lon="8.83921">
        <ele>408.21704101562</ele>
        <time>2015-06-26T08:03:36Z</time>
      </trkpt>
      <trkpt lat="42.58288" lon="8.83918">
        <ele>406.77490234375</ele>
        <time>2015-06-26T08:03:50Z</time>
      </trkpt>
      <trkpt lat="42.58283" lon="8.83907">
        <ele>403.41040039062</ele>
        <time>2015-06-26T08:04:03Z</time>
      </trkpt>
      <trkpt lat="42.58292" lon="8.83903">
        <ele>401.48779296875</ele>
        <time>2015-06-26T08:04:17Z</time>
      </trkpt>
      <trkpt lat="42.58294" lon="8.83896">
        <ele>400.52648925781</ele>
        <time>2015-06-26T08:04:25Z</time>
      </trkpt>
      <trkpt lat="42.58301" lon="8.83896">
        <ele>399.08435058594</ele>
        <time>2015-06-26T08:04:36Z</time>
      </trkpt>
      <trkpt lat="42.58308" lon="8.83888">
        <ele>396.68115234375</ele>
        <time>2015-06-26T08:04:51Z</time>
      </trkpt>
      <trkpt lat="42.58315" lon="8.83881">
        <ele>395.71984863281</ele>
        <time>2015-06-26T08:05:08Z</time>
      </trkpt>
      <trkpt lat="42.58323" lon="8.83876">
        <ele>392.35534667969</ele>
        <time>2015-06-26T08:05:22Z</time>
      </trkpt>
      <trkpt lat="42.58332" lon="8.83873">
        <ele>390.4326171875</ele>
        <time>2015-06-26T08:05:39Z</time>
      </trkpt>
      <trkpt lat="42.58333" lon="8.83869">
        <ele>388.51000976562</ele>
        <time>2015-06-26T08:05:49Z</time>
      </trkpt>
      <trkpt lat="42.58342" lon="8.83863">
        <ele>387.06799316406</ele>
        <time>2015-06-26T08:06:08Z</time>
      </trkpt>
      <trkpt lat="42.5835" lon="8.8386">
        <ele>385.14538574219</ele>
        <time>2015-06-26T08:06:24Z</time>
      </trkpt>
      <trkpt lat="42.58359" lon="8.83857">
        <ele>382.26135253906</ele>
        <time>2015-06-26T08:06:40Z</time>
      </trkpt>
      <trkpt lat="42.58359" lon="8.83857">
        <ele>382.26135253906</ele>
        <time>2015-06-26T08:06:41Z</time>
      </trkpt>
      <trkpt lat="42.58366" lon="8.83861">
        <ele>382.26135253906</ele>
        <time>2015-06-26T08:06:48Z</time>
      </trkpt>
      <trkpt lat="42.58372" lon="8.83873">
        <ele>383.22265625</ele>
        <time>2015-06-26T08:07:06Z</time>
      </trkpt>
      <trkpt lat="42.58376" lon="8.83875">
        <ele>382.26135253906</ele>
        <time>2015-06-26T08:07:19Z</time>
      </trkpt>
      <trkpt lat="42.58394" lon="8.83882">
        <ele>380.81945800781</ele>
        <time>2015-06-26T08:07:40Z</time>
      </trkpt>
      <trkpt lat="42.58402" lon="8.83893">
        <ele>379.85803222656</ele>
        <time>2015-06-26T08:07:57Z</time>
      </trkpt>
      <trkpt lat="42.58404" lon="8.83895">
        <ele>379.85803222656</ele>
        <time>2015-06-26T08:08:22Z</time>
      </trkpt>
      <trkpt lat="42.58417" lon="8.83902">
        <ele>378.89685058594</ele>
        <time>2015-06-26T08:08:53Z</time>
      </trkpt>
      <trkpt lat="42.58429" lon="8.83908">
        <ele>377.93542480469</ele>
        <time>2015-06-26T08:09:07Z</time>
      </trkpt>
      <trkpt lat="42.58429" lon="8.83909">
        <ele>377.93542480469</ele>
        <time>2015-06-26T08:09:25Z</time>
      </trkpt>
      <trkpt lat="42.5843" lon="8.83912">
        <ele>377.93542480469</ele>
        <time>2015-06-26T08:09:38Z</time>
      </trkpt>
      <trkpt lat="42.58439" lon="8.83924">
        <ele>376.97424316406</ele>
        <time>2015-06-26T08:09:58Z</time>
      </trkpt>
      <trkpt lat="42.58434" lon="8.83924">
        <ele>376.97424316406</ele>
        <time>2015-06-26T08:10:03Z</time>
      </trkpt>
      <trkpt lat="42.58456" lon="8.83916">
        <ele>376.49353027344</ele>
        <time>2015-06-26T08:10:27Z</time>
      </trkpt>
      <trkpt lat="42.5845" lon="8.83912">
        <ele>376.49353027344</ele>
        <time>2015-06-26T08:10:37Z</time>
      </trkpt>
      <trkpt lat="42.58436" lon="8.83922">
        <ele>376.49353027344</ele>
        <time>2015-06-26T08:10:58Z</time>
      </trkpt>
      <trkpt lat="42.58431" lon="8.83935">
        <ele>377.45483398438</ele>
        <time>2015-06-26T08:11:41Z</time>
      </trkpt>
      <trkpt lat="42.58441" lon="8.83941">
        <ele>375.53210449219</ele>
        <time>2015-06-26T08:11:53Z</time>
      </trkpt>
      <trkpt lat="42.58452" lon="8.83944">
        <ele>375.53210449219</ele>
        <time>2015-06-26T08:12:12Z</time>
      </trkpt>
      <trkpt lat="42.58463" lon="8.83943">
        <ele>373.60949707031</ele>
        <time>2015-06-26T08:12:27Z</time>
      </trkpt>
      <trkpt lat="42.5847" lon="8.83943">
        <ele>374.09008789062</ele>
        <time>2015-06-26T08:12:38Z</time>
      </trkpt>
      <trkpt lat="42.58474" lon="8.83943">
        <ele>374.57080078125</ele>
        <time>2015-06-26T08:12:48Z</time>
      </trkpt>
      <trkpt lat="42.58477" lon="8.83939">
        <ele>373.60949707031</ele>
        <time>2015-06-26T08:13:07Z</time>
      </trkpt>
      <trkpt lat="42.58479" lon="8.83923">
        <ele>374.57080078125</ele>
        <time>2015-06-26T08:13:26Z</time>
      </trkpt>
      <trkpt lat="42.5848" lon="8.8392">
        <ele>375.53210449219</ele>
        <time>2015-06-26T08:13:29Z</time>
      </trkpt>
      <trkpt lat="42.58479" lon="8.83887">
        <ele>376.01281738281</ele>
        <time>2015-06-26T08:13:53Z</time>
      </trkpt>
      <trkpt lat="42.58476" lon="8.83876">
        <ele>376.01281738281</ele>
        <time>2015-06-26T08:14:09Z</time>
      </trkpt>
      <trkpt lat="42.5847" lon="8.83877">
        <ele>376.97424316406</ele>
        <time>2015-06-26T08:14:23Z</time>
      </trkpt>
      <trkpt lat="42.58472" lon="8.83873">
        <ele>376.49353027344</ele>
        <time>2015-06-26T08:14:37Z</time>
      </trkpt>
      <trkpt lat="42.58465" lon="8.83868">
        <ele>377.45483398438</ele>
        <time>2015-06-26T08:14:51Z</time>
      </trkpt>
      <trkpt lat="42.58465" lon="8.83867">
        <ele>376.97424316406</ele>
        <time>2015-06-26T08:15:01Z</time>
      </trkpt>
      <trkpt lat="42.5846" lon="8.83876">
        <ele>377.93542480469</ele>
        <time>2015-06-26T08:15:10Z</time>
      </trkpt>
      <trkpt lat="42.58453" lon="8.83886">
        <ele>378.89685058594</ele>
        <time>2015-06-26T08:15:24Z</time>
      </trkpt>
      <trkpt lat="42.58454" lon="8.83895">
        <ele>378.89685058594</ele>
        <time>2015-06-26T08:15:35Z</time>
      </trkpt>
      <trkpt lat="42.58455" lon="8.83897">
        <ele>378.41613769531</ele>
        <time>2015-06-26T08:15:47Z</time>
      </trkpt>
      <trkpt lat="42.5845" lon="8.83904">
        <ele>377.93542480469</ele>
        <time>2015-06-26T08:16:16Z</time>
      </trkpt>
      <trkpt lat="42.58447" lon="8.83911">
        <ele>377.93542480469</ele>
        <time>2015-06-26T08:16:29Z</time>
      </trkpt>
      <trkpt lat="42.58444" lon="8.83918">
        <ele>377.45483398438</ele>
        <time>2015-06-26T08:16:47Z</time>
      </trkpt>
      <trkpt lat="42.58447" lon="8.83916">
        <ele>377.45483398438</ele>
        <time>2015-06-26T08:17:05Z</time>
      </trkpt>
      <trkpt lat="42.58443" lon="8.83915">
        <ele>377.45483398438</ele>
        <time>2015-06-26T08:17:17Z</time>
      </trkpt>
      <trkpt lat="42.58441" lon="8.83916">
        <ele>377.45483398438</ele>
        <time>2015-06-26T08:17:32Z</time>
      </trkpt>
      <trkpt lat="42.58442" lon="8.83913">
        <ele>377.93542480469</ele>
        <time>2015-06-26T08:17:50Z</time>
      </trkpt>
      <trkpt lat="42.58437" lon="8.83918">
        <ele>377.45483398438</ele>
        <time>2015-06-26T08:18:13Z</time>
      </trkpt>
      <trkpt lat="42.58436" lon="8.83925">
        <ele>376.97424316406</ele>
        <time>2015-06-26T08:18:34Z</time>
      </trkpt>
      <trkpt lat="42.58441" lon="8.83939">
        <ele>375.05151367188</ele>
        <time>2015-06-26T08:19:17Z</time>
      </trkpt>
      <trkpt lat="42.58449" lon="8.83943">
        <ele>373.60949707031</ele>
        <time>2015-06-26T08:19:40Z</time>
      </trkpt>
      <trkpt lat="42.5844" lon="8.83941">
        <ele>376.01281738281</ele>
        <time>2015-06-26T08:20:08Z</time>
      </trkpt>
      <trkpt lat="42.58428" lon="8.83932">
        <ele>377.93542480469</ele>
        <time>2015-06-26T08:20:25Z</time>
      </trkpt>
      <trkpt lat="42.58424" lon="8.8393">
        <ele>379.85803222656</ele>
        <time>2015-06-26T08:20:29Z</time>
      </trkpt>
      <trkpt lat="42.58412" lon="8.83919">
        <ele>380.81945800781</ele>
        <time>2015-06-26T08:20:47Z</time>
      </trkpt>
      <trkpt lat="42.58412" lon="8.8392">
        <ele>379.85803222656</ele>
        <time>2015-06-26T08:20:49Z</time>
      </trkpt>
      <trkpt lat="42.58408" lon="8.83933">
        <ele>381.30004882812</ele>
        <time>2015-06-26T08:21:05Z</time>
      </trkpt>
      <trkpt lat="42.58404" lon="8.83943">
        <ele>384.18408203125</ele>
        <time>2015-06-26T08:21:21Z</time>
      </trkpt>
      <trkpt lat="42.58404" lon="8.83942">
        <ele>384.66479492188</ele>
        <time>2015-06-26T08:21:40Z</time>
      </trkpt>
      <trkpt lat="42.58407" lon="8.83929">
        <ele>382.74206542969</ele>
        <time>2015-06-26T08:21:55Z</time>
      </trkpt>
      <trkpt lat="42.58405" lon="8.83914">
        <ele>382.74206542969</ele>
        <time>2015-06-26T08:22:11Z</time>
      </trkpt>
      <trkpt lat="42.58396" lon="8.83903">
        <ele>382.74206542969</ele>
        <time>2015-06-26T08:22:27Z</time>
      </trkpt>
      <trkpt lat="42.58391" lon="8.83891">
        <ele>381.78063964844</ele>
        <time>2015-06-26T08:22:41Z</time>
      </trkpt>
      <trkpt lat="42.58385" lon="8.83883">
        <ele>382.26135253906</ele>
        <time>2015-06-26T08:22:51Z</time>
      </trkpt>
      <trkpt lat="42.58382" lon="8.8388">
        <ele>381.78063964844</ele>
        <time>2015-06-26T08:22:55Z</time>
      </trkpt>
      <trkpt lat="42.58372" lon="8.83873">
        <ele>382.26135253906</ele>
        <time>2015-06-26T08:23:11Z</time>
      </trkpt>
      <trkpt lat="42.58371" lon="8.83871">
        <ele>382.26135253906</ele>
        <time>2015-06-26T08:23:24Z</time>
      </trkpt>
      <trkpt lat="42.58372" lon="8.83873">
        <ele>382.74206542969</ele>
        <time>2015-06-26T08:23:56Z</time>
      </trkpt>
      <trkpt lat="42.58368" lon="8.83879">
        <ele>384.66479492188</ele>
        <time>2015-06-26T08:25:04Z</time>
      </trkpt>
      <trkpt lat="42.58367" lon="8.83885">
        <ele>386.10668945312</ele>
        <time>2015-06-26T08:25:16Z</time>
      </trkpt>
      <trkpt lat="42.58374" lon="8.83891">
        <ele>386.10668945312</ele>
        <time>2015-06-26T08:25:23Z</time>
      </trkpt>
      <trkpt lat="42.58378" lon="8.8391">
        <ele>388.99060058594</ele>
        <time>2015-06-26T08:25:39Z</time>
      </trkpt>
      <trkpt lat="42.58378" lon="8.8392">
        <ele>389.47119140625</ele>
        <time>2015-06-26T08:25:50Z</time>
      </trkpt>
      <trkpt lat="42.58376" lon="8.83931">
        <ele>390.91320800781</ele>
        <time>2015-06-26T08:26:05Z</time>
      </trkpt>
      <trkpt lat="42.58374" lon="8.83945">
        <ele>393.31652832031</ele>
        <time>2015-06-26T08:26:20Z</time>
      </trkpt>
      <trkpt lat="42.58376" lon="8.83954">
        <ele>394.75854492188</ele>
        <time>2015-06-26T08:26:33Z</time>
      </trkpt>
      <trkpt lat="42.58377" lon="8.83965">
        <ele>395.71984863281</ele>
        <time>2015-06-26T08:26:45Z</time>
      </trkpt>
      <trkpt lat="42.5838" lon="8.83974">
        <ele>395.71984863281</ele>
        <time>2015-06-26T08:26:59Z</time>
      </trkpt>
      <trkpt lat="42.58382" lon="8.83975">
        <ele>396.20056152344</ele>
        <time>2015-06-26T08:27:02Z</time>
      </trkpt>
      <trkpt lat="42.58388" lon="8.83974">
        <ele>395.71984863281</ele>
        <time>2015-06-26T08:27:17Z</time>
      </trkpt>
      <trkpt lat="42.58388" lon="8.83977">
        <ele>396.20056152344</ele>
        <time>2015-06-26T08:27:35Z</time>
      </trkpt>
      <trkpt lat="42.58385" lon="8.83978">
        <ele>396.68115234375</ele>
        <time>2015-06-26T08:28:12Z</time>
      </trkpt>
      <trkpt lat="42.58376" lon="8.83979">
        <ele>397.64245605469</ele>
        <time>2015-06-26T08:28:35Z</time>
      </trkpt>
      <trkpt lat="42.58371" lon="8.83986">
        <ele>398.60375976562</ele>
        <time>2015-06-26T08:28:51Z</time>
      </trkpt>
      <trkpt lat="42.5837" lon="8.83988">
        <ele>399.56506347656</ele>
        <time>2015-06-26T08:28:57Z</time>
      </trkpt>
      <trkpt lat="42.58363" lon="8.83988">
        <ele>401.96850585938</ele>
        <time>2015-06-26T08:29:10Z</time>
      </trkpt>
      <trkpt lat="42.58357" lon="8.83992">
        <ele>404.85229492188</ele>
        <time>2015-06-26T08:29:24Z</time>
      </trkpt>
      <trkpt lat="42.58356" lon="8.83998">
        <ele>405.3330078125</ele>
        <time>2015-06-26T08:29:37Z</time>
      </trkpt>
      <trkpt lat="42.58353" lon="8.84006">
        <ele>407.736328125</ele>
        <time>2015-06-26T08:29:52Z</time>
      </trkpt>
      <trkpt lat="42.58349" lon="8.84012">
        <ele>410.1396484375</ele>
        <time>2015-06-26T08:30:07Z</time>
      </trkpt>
      <trkpt lat="42.58347" lon="8.84016">
        <ele>409.65905761719</ele>
        <time>2015-06-26T08:30:23Z</time>
      </trkpt>
      <trkpt lat="42.58344" lon="8.84016">
        <ele>412.06225585938</ele>
        <time>2015-06-26T08:30:37Z</time>
      </trkpt>
      <trkpt lat="42.58342" lon="8.84017">
        <ele>413.50427246094</ele>
        <time>2015-06-26T08:30:50Z</time>
      </trkpt>
      <trkpt lat="42.58344" lon="8.84027">
        <ele>413.02355957031</ele>
        <time>2015-06-26T08:31:04Z</time>
      </trkpt>
      <trkpt lat="42.58344" lon="8.84029">
        <ele>413.02355957031</ele>
        <time>2015-06-26T08:31:16Z</time>
      </trkpt>
      <trkpt lat="42.58343" lon="8.84027">
        <ele>412.06225585938</ele>
        <time>2015-06-26T08:31:19Z</time>
      </trkpt>
      <trkpt lat="42.58347" lon="8.84021">
        <ele>411.58166503906</ele>
        <time>2015-06-26T08:31:36Z</time>
      </trkpt>
      <trkpt lat="42.58345" lon="8.84028">
        <ele>412.54284667969</ele>
        <time>2015-06-26T08:32:18Z</time>
      </trkpt>
      <trkpt lat="42.58345" lon="8.84039">
        <ele>413.50427246094</ele>
        <time>2015-06-26T08:32:32Z</time>
      </trkpt>
      <trkpt lat="42.58342" lon="8.84048">
        <ele>416.38818359375</ele>
        <time>2015-06-26T08:32:45Z</time>
      </trkpt>
      <trkpt lat="42.58343" lon="8.84059">
        <ele>416.86889648438</ele>
        <time>2015-06-26T08:32:58Z</time>
      </trkpt>
      <trkpt lat="42.58339" lon="8.84065">
        <ele>419.27221679688</ele>
        <time>2015-06-26T08:33:10Z</time>
      </trkpt>
      <trkpt lat="42.58338" lon="8.8407">
        <ele>421.67541503906</ele>
        <time>2015-06-26T08:33:24Z</time>
      </trkpt>
      <trkpt lat="42.58338" lon="8.84079">
        <ele>422.15600585938</ele>
        <time>2015-06-26T08:33:38Z</time>
      </trkpt>
      <trkpt lat="42.58337" lon="8.84088">
        <ele>423.11743164062</ele>
        <time>2015-06-26T08:33:51Z</time>
      </trkpt>
      <trkpt lat="42.58332" lon="8.84094">
        <ele>424.55944824219</ele>
        <time>2015-06-26T08:34:03Z</time>
      </trkpt>
      <trkpt lat="42.5833" lon="8.84102">
        <ele>427.92395019531</ele>
        <time>2015-06-26T08:34:14Z</time>
      </trkpt>
      <trkpt lat="42.58329" lon="8.84104">
        <ele>427.92395019531</ele>
        <time>2015-06-26T08:34:17Z</time>
      </trkpt>
      <trkpt lat="42.58324" lon="8.841">
        <ele>429.84655761719</ele>
        <time>2015-06-26T08:34:27Z</time>
      </trkpt>
      <trkpt lat="42.5832" lon="8.8411">
        <ele>432.25</ele>
        <time>2015-06-26T08:34:42Z</time>
      </trkpt>
      <trkpt lat="42.58316" lon="8.84114">
        <ele>433.21130371094</ele>
        <time>2015-06-26T08:34:53Z</time>
      </trkpt>
      <trkpt lat="42.58314" lon="8.84123">
        <ele>435.61450195312</ele>
        <time>2015-06-26T08:35:08Z</time>
      </trkpt>
      <trkpt lat="42.58311" lon="8.84132">
        <ele>436.57592773438</ele>
        <time>2015-06-26T08:35:21Z</time>
      </trkpt>
      <trkpt lat="42.5831" lon="8.84138">
        <ele>437.537109375</ele>
        <time>2015-06-26T08:35:32Z</time>
      </trkpt>
      <trkpt lat="42.58308" lon="8.84145">
        <ele>439.9404296875</ele>
        <time>2015-06-26T08:35:44Z</time>
      </trkpt>
      <trkpt lat="42.58304" lon="8.84143">
        <ele>442.82446289062</ele>
        <time>2015-06-26T08:35:58Z</time>
      </trkpt>
      <trkpt lat="42.58304" lon="8.84154">
        <ele>445.70837402344</ele>
        <time>2015-06-26T08:36:12Z</time>
      </trkpt>
      <trkpt lat="42.58298" lon="8.84158">
        <ele>447.63098144531</ele>
        <time>2015-06-26T08:36:24Z</time>
      </trkpt>
      <trkpt lat="42.58295" lon="8.84157">
        <ele>448.59240722656</ele>
        <time>2015-06-26T08:36:39Z</time>
      </trkpt>
      <trkpt lat="42.58295" lon="8.84161">
        <ele>449.07299804688</ele>
        <time>2015-06-26T08:36:51Z</time>
      </trkpt>
      <trkpt lat="42.58289" lon="8.84166">
        <ele>451.95703125</ele>
        <time>2015-06-26T08:37:06Z</time>
      </trkpt>
      <trkpt lat="42.58282" lon="8.84155">
        <ele>453.39892578125</ele>
        <time>2015-06-26T08:37:22Z</time>
      </trkpt>
      <trkpt lat="42.5828" lon="8.84154">
        <ele>454.36022949219</ele>
        <time>2015-06-26T08:37:26Z</time>
      </trkpt>
      <trkpt lat="42.58275" lon="8.84152">
        <ele>457.72497558594</ele>
        <time>2015-06-26T08:37:36Z</time>
      </trkpt>
      <trkpt lat="42.5827" lon="8.84154">
        <ele>460.12817382812</ele>
        <time>2015-06-26T08:37:50Z</time>
      </trkpt>
      <trkpt lat="42.58265" lon="8.84151">
        <ele>460.60876464844</ele>
        <time>2015-06-26T08:38:02Z</time>
      </trkpt>
      <trkpt lat="42.58262" lon="8.84155">
        <ele>461.08947753906</ele>
        <time>2015-06-26T08:38:24Z</time>
      </trkpt>
      <trkpt lat="42.58252" lon="8.84161">
        <ele>465.89611816406</ele>
        <time>2015-06-26T08:38:39Z</time>
      </trkpt>
      <trkpt lat="42.58249" lon="8.8417">
        <ele>466.857421875</ele>
        <time>2015-06-26T08:38:53Z</time>
      </trkpt>
      <trkpt lat="42.58247" lon="8.84176">
        <ele>467.81872558594</ele>
        <time>2015-06-26T08:39:13Z</time>
      </trkpt>
      <trkpt lat="42.58246" lon="8.84182">
        <ele>468.78002929688</ele>
        <time>2015-06-26T08:39:25Z</time>
      </trkpt>
      <trkpt lat="42.58243" lon="8.84184">
        <ele>469.74133300781</ele>
        <time>2015-06-26T08:39:38Z</time>
      </trkpt>
      <trkpt lat="42.5824" lon="8.84189">
        <ele>472.14465332031</ele>
        <time>2015-06-26T08:39:48Z</time>
      </trkpt>
      <trkpt lat="42.58238" lon="8.84197">
        <ele>472.62536621094</ele>
        <time>2015-06-26T08:40:04Z</time>
      </trkpt>
      <trkpt lat="42.5824" lon="8.84203">
        <ele>473.58666992188</ele>
        <time>2015-06-26T08:40:16Z</time>
      </trkpt>
      <trkpt lat="42.58239" lon="8.84211">
        <ele>475.02868652344</ele>
        <time>2015-06-26T08:40:30Z</time>
      </trkpt>
      <trkpt lat="42.5824" lon="8.84214">
        <ele>476.47058105469</ele>
        <time>2015-06-26T08:40:33Z</time>
      </trkpt>
      <trkpt lat="42.58242" lon="8.84227">
        <ele>479.3544921875</ele>
        <time>2015-06-26T08:40:48Z</time>
      </trkpt>
      <trkpt lat="42.58241" lon="8.84239">
        <ele>480.79663085938</ele>
        <time>2015-06-26T08:41:04Z</time>
      </trkpt>
      <trkpt lat="42.58238" lon="8.84241">
        <ele>480.79663085938</ele>
        <time>2015-06-26T08:41:12Z</time>
      </trkpt>
      <trkpt lat="42.5823" lon="8.84236">
        <ele>481.27722167969</ele>
        <time>2015-06-26T08:41:26Z</time>
      </trkpt>
      <trkpt lat="42.58222" lon="8.84238">
        <ele>483.68041992188</ele>
        <time>2015-06-26T08:41:38Z</time>
      </trkpt>
      <trkpt lat="42.58219" lon="8.84241">
        <ele>485.12243652344</ele>
        <time>2015-06-26T08:41:53Z</time>
      </trkpt>
      <trkpt lat="42.58223" lon="8.84247">
        <ele>486.08374023438</ele>
        <time>2015-06-26T08:42:07Z</time>
      </trkpt>
      <trkpt lat="42.58227" lon="8.84253">
        <ele>486.564453125</ele>
        <time>2015-06-26T08:42:21Z</time>
      </trkpt>
      <trkpt lat="42.58225" lon="8.84261">
        <ele>488.48718261719</ele>
        <time>2015-06-26T08:42:34Z</time>
      </trkpt>
      <trkpt lat="42.58229" lon="8.84268">
        <ele>490.89038085938</ele>
        <time>2015-06-26T08:42:48Z</time>
      </trkpt>
      <trkpt lat="42.58229" lon="8.84268">
        <ele>490.40979003906</ele>
        <time>2015-06-26T08:42:49Z</time>
      </trkpt>
      <trkpt lat="42.58235" lon="8.84273">
        <ele>489.92907714844</ele>
        <time>2015-06-26T08:43:02Z</time>
      </trkpt>
      <trkpt lat="42.5824" lon="8.84285">
        <ele>492.81298828125</ele>
        <time>2015-06-26T08:43:16Z</time>
      </trkpt>
      <trkpt lat="42.58244" lon="8.84295">
        <ele>495.21618652344</ele>
        <time>2015-06-26T08:43:31Z</time>
      </trkpt>
      <trkpt lat="42.58246" lon="8.84303">
        <ele>496.65832519531</ele>
        <time>2015-06-26T08:43:45Z</time>
      </trkpt>
      <trkpt lat="42.58242" lon="8.84307">
        <ele>498.58093261719</ele>
        <time>2015-06-26T08:43:57Z</time>
      </trkpt>
      <trkpt lat="42.5824" lon="8.84313">
        <ele>500.50354003906</ele>
        <time>2015-06-26T08:44:09Z</time>
      </trkpt>
      <trkpt lat="42.58247" lon="8.84322">
        <ele>501.94555664062</ele>
        <time>2015-06-26T08:44:26Z</time>
      </trkpt>
      <trkpt lat="42.5825" lon="8.84327">
        <ele>502.90673828125</ele>
        <time>2015-06-26T08:44:42Z</time>
      </trkpt>
      <trkpt lat="42.58252" lon="8.84329">
        <ele>503.8681640625</ele>
        <time>2015-06-26T08:44:48Z</time>
      </trkpt>
      <trkpt lat="42.58255" lon="8.84333">
        <ele>504.82946777344</ele>
        <time>2015-06-26T08:44:52Z</time>
      </trkpt>
      <trkpt lat="42.58258" lon="8.84343">
        <ele>505.79089355469</ele>
        <time>2015-06-26T08:45:06Z</time>
      </trkpt>
      <trkpt lat="42.58263" lon="8.84348">
        <ele>504.34887695312</ele>
        <time>2015-06-26T08:45:20Z</time>
      </trkpt>
      <trkpt lat="42.58269" lon="8.8436">
        <ele>505.31018066406</ele>
        <time>2015-06-26T08:45:34Z</time>
      </trkpt>
      <trkpt lat="42.5827" lon="8.84362">
        <ele>504.82946777344</ele>
        <time>2015-06-26T08:45:36Z</time>
      </trkpt>
      <trkpt lat="42.58271" lon="8.84367">
        <ele>505.79089355469</ele>
        <time>2015-06-26T08:45:49Z</time>
      </trkpt>
      <trkpt lat="42.58273" lon="8.84373">
        <ele>507.23278808594</ele>
        <time>2015-06-26T08:46:03Z</time>
      </trkpt>
      <trkpt lat="42.58273" lon="8.84381">
        <ele>508.67468261719</ele>
        <time>2015-06-26T08:46:13Z</time>
      </trkpt>
      <trkpt lat="42.58272" lon="8.84384">
        <ele>510.59729003906</ele>
        <time>2015-06-26T08:46:24Z</time>
      </trkpt>
      <trkpt lat="42.58273" lon="8.84388">
        <ele>512.03942871094</ele>
        <time>2015-06-26T08:46:37Z</time>
      </trkpt>
      <trkpt lat="42.58273" lon="8.84394">
        <ele>514.44262695312</ele>
        <time>2015-06-26T08:46:48Z</time>
      </trkpt>
      <trkpt lat="42.58272" lon="8.84401">
        <ele>517.32666015625</ele>
        <time>2015-06-26T08:47:03Z</time>
      </trkpt>
      <trkpt lat="42.58276" lon="8.8441">
        <ele>517.80725097656</ele>
        <time>2015-06-26T08:47:18Z</time>
      </trkpt>
      <trkpt lat="42.58279" lon="8.84419">
        <ele>518.7685546875</ele>
        <time>2015-06-26T08:47:34Z</time>
      </trkpt>
      <trkpt lat="42.5828" lon="8.84424">
        <ele>519.24926757812</ele>
        <time>2015-06-26T08:47:51Z</time>
      </trkpt>
      <trkpt lat="42.58279" lon="8.84429">
        <ele>519.72985839844</ele>
        <time>2015-06-26T08:48:04Z</time>
      </trkpt>
      <trkpt lat="42.58282" lon="8.84436">
        <ele>520.69128417969</ele>
        <time>2015-06-26T08:48:19Z</time>
      </trkpt>
      <trkpt lat="42.58283" lon="8.8444">
        <ele>521.17199707031</ele>
        <time>2015-06-26T08:48:38Z</time>
      </trkpt>
      <trkpt lat="42.58288" lon="8.84445">
        <ele>519.72985839844</ele>
        <time>2015-06-26T08:48:58Z</time>
      </trkpt>
      <trkpt lat="42.58292" lon="8.84451">
        <ele>518.28784179688</ele>
        <time>2015-06-26T08:49:12Z</time>
      </trkpt>
      <trkpt lat="42.58293" lon="8.84461">
        <ele>521.17199707031</ele>
        <time>2015-06-26T08:49:28Z</time>
      </trkpt>
      <trkpt lat="42.58293" lon="8.84462">
        <ele>522.13317871094</ele>
        <time>2015-06-26T08:49:30Z</time>
      </trkpt>
      <trkpt lat="42.58291" lon="8.84466">
        <ele>524.53649902344</ele>
        <time>2015-06-26T08:49:44Z</time>
      </trkpt>
      <trkpt lat="42.58294" lon="8.84471">
        <ele>525.97839355469</ele>
        <time>2015-06-26T08:49:56Z</time>
      </trkpt>
      <trkpt lat="42.58291" lon="8.84475">
        <ele>527.42041015625</ele>
        <time>2015-06-26T08:50:10Z</time>
      </trkpt>
      <trkpt lat="42.58292" lon="8.84481">
        <ele>529.82373046875</ele>
        <time>2015-06-26T08:50:43Z</time>
      </trkpt>
      <trkpt lat="42.58297" lon="8.84484">
        <ele>532.22705078125</ele>
        <time>2015-06-26T08:51:05Z</time>
      </trkpt>
      <trkpt lat="42.58293" lon="8.84486">
        <ele>534.14965820312</ele>
        <time>2015-06-26T08:51:22Z</time>
      </trkpt>
      <trkpt lat="42.58294" lon="8.84494">
        <ele>536.55310058594</ele>
        <time>2015-06-26T08:51:41Z</time>
      </trkpt>
      <trkpt lat="42.58298" lon="8.845">
        <ele>538.95629882812</ele>
        <time>2015-06-26T08:51:57Z</time>
      </trkpt>
      <trkpt lat="42.583" lon="8.84506">
        <ele>541.84020996094</ele>
        <time>2015-06-26T08:52:10Z</time>
      </trkpt>
      <trkpt lat="42.583" lon="8.84512">
        <ele>543.76281738281</ele>
        <time>2015-06-26T08:52:21Z</time>
      </trkpt>
      <trkpt lat="42.58302" lon="8.84517">
        <ele>545.685546875</ele>
        <time>2015-06-26T08:52:32Z</time>
      </trkpt>
      <trkpt lat="42.58301" lon="8.84523">
        <ele>549.05004882812</ele>
        <time>2015-06-26T08:52:44Z</time>
      </trkpt>
      <trkpt lat="42.58303" lon="8.84532">
        <ele>550.4921875</ele>
        <time>2015-06-26T08:52:58Z</time>
      </trkpt>
      <trkpt lat="42.58295" lon="8.84532">
        <ele>551.93408203125</ele>
        <time>2015-06-26T08:53:12Z</time>
      </trkpt>
      <trkpt lat="42.58292" lon="8.84537">
        <ele>553.85668945312</ele>
        <time>2015-06-26T08:53:25Z</time>
      </trkpt>
      <trkpt lat="42.58283" lon="8.84539">
        <ele>556.74072265625</ele>
        <time>2015-06-26T08:53:40Z</time>
      </trkpt>
      <trkpt lat="42.58278" lon="8.84532">
        <ele>558.66333007812</ele>
        <time>2015-06-26T08:53:55Z</time>
      </trkpt>
      <trkpt lat="42.58272" lon="8.84519">
        <ele>558.66333007812</ele>
        <time>2015-06-26T08:54:12Z</time>
      </trkpt>
      <trkpt lat="42.5827" lon="8.84506">
        <ele>560.10522460938</ele>
        <time>2015-06-26T08:54:28Z</time>
      </trkpt>
      <trkpt lat="42.58271" lon="8.84494">
        <ele>562.9892578125</ele>
        <time>2015-06-26T08:54:43Z</time>
      </trkpt>
      <trkpt lat="42.58274" lon="8.84495">
        <ele>564.43115234375</ele>
        <time>2015-06-26T08:54:57Z</time>
      </trkpt>
      <trkpt lat="42.58278" lon="8.84499">
        <ele>564.43115234375</ele>
        <time>2015-06-26T08:55:14Z</time>
      </trkpt>
      <trkpt lat="42.58278" lon="8.84499">
        <ele>563.95043945312</ele>
        <time>2015-06-26T08:55:53Z</time>
      </trkpt>
      <trkpt lat="42.58274" lon="8.84496">
        <ele>563.95043945312</ele>
        <time>2015-06-26T08:56:16Z</time>
      </trkpt>
      <trkpt lat="42.58266" lon="8.84485">
        <ele>563.46997070312</ele>
        <time>2015-06-26T08:56:33Z</time>
      </trkpt>
      <trkpt lat="42.58259" lon="8.84478">
        <ele>563.46997070312</ele>
        <time>2015-06-26T08:56:47Z</time>
      </trkpt>
      <trkpt lat="42.58258" lon="8.8448">
        <ele>563.46997070312</ele>
        <time>2015-06-26T08:57:05Z</time>
      </trkpt>
      <trkpt lat="42.58259" lon="8.84478">
        <ele>563.46997070312</ele>
        <time>2015-06-26T08:57:18Z</time>
      </trkpt>
      <trkpt lat="42.58256" lon="8.84471">
        <ele>563.95043945312</ele>
        <time>2015-06-26T08:57:32Z</time>
      </trkpt>
      <trkpt lat="42.58251" lon="8.84463">
        <ele>564.43115234375</ele>
        <time>2015-06-26T08:57:47Z</time>
      </trkpt>
      <trkpt lat="42.58249" lon="8.8446">
        <ele>564.43115234375</ele>
        <time>2015-06-26T08:58:05Z</time>
      </trkpt>
      <trkpt lat="42.58249" lon="8.84457">
        <ele>563.46997070312</ele>
        <time>2015-06-26T08:58:17Z</time>
      </trkpt>
      <trkpt lat="42.58242" lon="8.84452">
        <ele>562.50854492188</ele>
        <time>2015-06-26T08:58:32Z</time>
      </trkpt>
      <trkpt lat="42.5824" lon="8.8445">
        <ele>561.54736328125</ele>
        <time>2015-06-26T08:58:44Z</time>
      </trkpt>
      <trkpt lat="42.5824" lon="8.8445">
        <ele>561.54736328125</ele>
        <time>2015-06-26T08:59:41Z</time>
      </trkpt>
      <trkpt lat="42.58243" lon="8.84452">
        <ele>562.50854492188</ele>
        <time>2015-06-26T09:00:09Z</time>
      </trkpt>
      <trkpt lat="42.58248" lon="8.84446">
        <ele>562.9892578125</ele>
        <time>2015-06-26T09:00:22Z</time>
      </trkpt>
      <trkpt lat="42.58247" lon="8.84446">
        <ele>562.9892578125</ele>
        <time>2015-06-26T09:00:45Z</time>
      </trkpt>
      <trkpt lat="42.58246" lon="8.84449">
        <ele>562.9892578125</ele>
        <time>2015-06-26T09:01:10Z</time>
      </trkpt>
      <trkpt lat="42.58243" lon="8.84453">
        <ele>563.46997070312</ele>
        <time>2015-06-26T09:01:23Z</time>
      </trkpt>
      <trkpt lat="42.58245" lon="8.84455">
        <ele>563.46997070312</ele>
        <time>2015-06-26T09:01:35Z</time>
      </trkpt>
      <trkpt lat="42.58244" lon="8.84454">
        <ele>563.95043945312</ele>
        <time>2015-06-26T09:01:45Z</time>
      </trkpt>
      <trkpt lat="42.58245" lon="8.84458">
        <ele>562.50854492188</ele>
        <time>2015-06-26T09:02:00Z</time>
      </trkpt>
      <trkpt lat="42.58246" lon="8.84465">
        <ele>561.54736328125</ele>
        <time>2015-06-26T09:02:14Z</time>
      </trkpt>
      <trkpt lat="42.58247" lon="8.84472">
        <ele>560.5859375</ele>
        <time>2015-06-26T09:02:31Z</time>
      </trkpt>
      <trkpt lat="42.58256" lon="8.84479">
        <ele>563.95043945312</ele>
        <time>2015-06-26T09:02:46Z</time>
      </trkpt>
      <trkpt lat="42.58263" lon="8.84482">
        <ele>563.46997070312</ele>
        <time>2015-06-26T09:03:00Z</time>
      </trkpt>
      <trkpt lat="42.58263" lon="8.84486">
        <ele>564.43115234375</ele>
        <time>2015-06-26T09:03:15Z</time>
      </trkpt>
      <trkpt lat="42.58263" lon="8.84486">
        <ele>563.46997070312</ele>
        <time>2015-06-26T09:03:31Z</time>
      </trkpt>
      <trkpt lat="42.58263" lon="8.84487">
        <ele>562.9892578125</ele>
        <time>2015-06-26T09:03:55Z</time>
      </trkpt>
      <trkpt lat="42.58264" lon="8.84486">
        <ele>562.50854492188</ele>
        <time>2015-06-26T09:04:19Z</time>
      </trkpt>
      <trkpt lat="42.58262" lon="8.84486">
        <ele>562.02807617188</ele>
        <time>2015-06-26T09:05:08Z</time>
      </trkpt>
      <trkpt lat="42.58263" lon="8.84486">
        <ele>562.9892578125</ele>
        <time>2015-06-26T09:05:17Z</time>
      </trkpt>
      <trkpt lat="42.58264" lon="8.84487">
        <ele>562.9892578125</ele>
        <time>2015-06-26T09:06:22Z</time>
      </trkpt>
      <trkpt lat="42.58262" lon="8.84487">
        <ele>562.9892578125</ele>
        <time>2015-06-26T09:07:38Z</time>
      </trkpt>
      <trkpt lat="42.58263" lon="8.84486">
        <ele>562.50854492188</ele>
        <time>2015-06-26T09:07:39Z</time>
      </trkpt>
      <trkpt lat="42.58264" lon="8.84484">
        <ele>562.9892578125</ele>
        <time>2015-06-26T09:07:49Z</time>
      </trkpt>
      <trkpt lat="42.58263" lon="8.8448">
        <ele>562.9892578125</ele>
        <time>2015-06-26T09:08:04Z</time>
      </trkpt>
      <trkpt lat="42.58264" lon="8.8448">
        <ele>562.9892578125</ele>
        <time>2015-06-26T09:08:21Z</time>
      </trkpt>
      <trkpt lat="42.58262" lon="8.84482">
        <ele>562.50854492188</ele>
        <time>2015-06-26T09:08:40Z</time>
      </trkpt>
      <trkpt lat="42.58261" lon="8.84483">
        <ele>562.9892578125</ele>
        <time>2015-06-26T09:09:33Z</time>
      </trkpt>
      <trkpt lat="42.58262" lon="8.84484">
        <ele>562.9892578125</ele>
        <time>2015-06-26T09:10:04Z</time>
      </trkpt>
      <trkpt lat="42.5826" lon="8.84484">
        <ele>562.50854492188</ele>
        <time>2015-06-26T09:12:37Z</time>
      </trkpt>
      <trkpt lat="42.58261" lon="8.84481">
        <ele>562.02807617188</ele>
        <time>2015-06-26T09:13:33Z</time>
      </trkpt>
      <trkpt lat="42.58263" lon="8.84481">
        <ele>564.43115234375</ele>
        <time>2015-06-26T09:20:03Z</time>
      </trkpt>
      <trkpt lat="42.58261" lon="8.84482">
        <ele>564.91186523438</ele>
        <time>2015-06-26T09:20:20Z</time>
      </trkpt>
      <trkpt lat="42.5826" lon="8.84488">
        <ele>562.9892578125</ele>
        <time>2015-06-26T09:20:48Z</time>
      </trkpt>
      <trkpt lat="42.58258" lon="8.84495">
        <ele>561.06665039062</ele>
        <time>2015-06-26T09:21:03Z</time>
      </trkpt>
      <trkpt lat="42.58264" lon="8.84505">
        <ele>559.62475585938</ele>
        <time>2015-06-26T09:21:20Z</time>
      </trkpt>
      <trkpt lat="42.58261" lon="8.84511">
        <ele>557.7021484375</ele>
        <time>2015-06-26T09:21:34Z</time>
      </trkpt>
      <trkpt lat="42.58259" lon="8.8452">
        <ele>557.22143554688</ele>
        <time>2015-06-26T09:21:47Z</time>
      </trkpt>
      <trkpt lat="42.58258" lon="8.84525">
        <ele>556.74072265625</ele>
        <time>2015-06-26T09:22:06Z</time>
      </trkpt>
      <trkpt lat="42.5826" lon="8.84525">
        <ele>557.22143554688</ele>
        <time>2015-06-26T09:22:20Z</time>
      </trkpt>
      <trkpt lat="42.58275" lon="8.84529">
        <ele>560.5859375</ele>
        <time>2015-06-26T09:22:38Z</time>
      </trkpt>
      <trkpt lat="42.58283" lon="8.84539">
        <ele>559.14404296875</ele>
        <time>2015-06-26T09:22:55Z</time>
      </trkpt>
      <trkpt lat="42.58285" lon="8.84541">
        <ele>558.18286132812</ele>
        <time>2015-06-26T09:22:59Z</time>
      </trkpt>
      <trkpt lat="42.58293" lon="8.84547">
        <ele>556.26000976562</ele>
        <time>2015-06-26T09:23:16Z</time>
      </trkpt>
      <trkpt lat="42.58293" lon="8.84534">
        <ele>553.3759765625</ele>
        <time>2015-06-26T09:23:30Z</time>
      </trkpt>
      <trkpt lat="42.58294" lon="8.84534">
        <ele>553.3759765625</ele>
        <time>2015-06-26T09:23:31Z</time>
      </trkpt>
      <trkpt lat="42.58301" lon="8.84531">
        <ele>553.3759765625</ele>
        <time>2015-06-26T09:23:47Z</time>
      </trkpt>
      <trkpt lat="42.583" lon="8.84523">
        <ele>550.01147460938</ele>
        <time>2015-06-26T09:24:00Z</time>
      </trkpt>
      <trkpt lat="42.583" lon="8.84523">
        <ele>550.4921875</ele>
        <time>2015-06-26T09:24:01Z</time>
      </trkpt>
      <trkpt lat="42.58302" lon="8.84516">
        <ele>548.0888671875</ele>
        <time>2015-06-26T09:24:17Z</time>
      </trkpt>
      <trkpt lat="42.58299" lon="8.84511">
        <ele>546.16625976562</ele>
        <time>2015-06-26T09:24:33Z</time>
      </trkpt>
      <trkpt lat="42.583" lon="8.84508">
        <ele>545.685546875</ele>
        <time>2015-06-26T09:24:50Z</time>
      </trkpt>
      <trkpt lat="42.583" lon="8.84504">
        <ele>544.24365234375</ele>
        <time>2015-06-26T09:25:05Z</time>
      </trkpt>
      <trkpt lat="42.58299" lon="8.84501">
        <ele>543.28210449219</ele>
        <time>2015-06-26T09:25:20Z</time>
      </trkpt>
      <trkpt lat="42.58298" lon="8.84498">
        <ele>542.32092285156</ele>
        <time>2015-06-26T09:25:40Z</time>
      </trkpt>
      <trkpt lat="42.58298" lon="8.84493">
        <ele>540.87890625</ele>
        <time>2015-06-26T09:25:57Z</time>
      </trkpt>
      <trkpt lat="42.58298" lon="8.84487">
        <ele>539.43688964844</ele>
        <time>2015-06-26T09:26:17Z</time>
      </trkpt>
      <trkpt lat="42.583" lon="8.84483">
        <ele>539.43688964844</ele>
        <time>2015-06-26T09:26:31Z</time>
      </trkpt>
      <trkpt lat="42.58298" lon="8.84488">
        <ele>539.43688964844</ele>
        <time>2015-06-26T09:26:54Z</time>
      </trkpt>
      <trkpt lat="42.58298" lon="8.84487">
        <ele>536.07238769531</ele>
        <time>2015-06-26T09:27:07Z</time>
      </trkpt>
      <trkpt lat="42.58296" lon="8.84483">
        <ele>535.11096191406</ele>
        <time>2015-06-26T09:27:23Z</time>
      </trkpt>
      <trkpt lat="42.58294" lon="8.84481">
        <ele>535.59155273438</ele>
        <time>2015-06-26T09:27:45Z</time>
      </trkpt>
      <trkpt lat="42.58292" lon="8.84476">
        <ele>532.22705078125</ele>
        <time>2015-06-26T09:28:01Z</time>
      </trkpt>
      <trkpt lat="42.58292" lon="8.84473">
        <ele>531.26574707031</ele>
        <time>2015-06-26T09:28:16Z</time>
      </trkpt>
      <trkpt lat="42.58291" lon="8.8447">
        <ele>528.86254882812</ele>
        <time>2015-06-26T09:28:33Z</time>
      </trkpt>
      <trkpt lat="42.58291" lon="8.84465">
        <ele>526.93981933594</ele>
        <time>2015-06-26T09:28:49Z</time>
      </trkpt>
      <trkpt lat="42.58292" lon="8.84465">
        <ele>525.49780273438</ele>
        <time>2015-06-26T09:29:03Z</time>
      </trkpt>
      <trkpt lat="42.58292" lon="8.84461">
        <ele>524.53649902344</ele>
        <time>2015-06-26T09:29:21Z</time>
      </trkpt>
      <trkpt lat="42.58293" lon="8.84458">
        <ele>522.61389160156</ele>
        <time>2015-06-26T09:29:36Z</time>
      </trkpt>
      <trkpt lat="42.58293" lon="8.84456">
        <ele>521.65258789062</ele>
        <time>2015-06-26T09:29:38Z</time>
      </trkpt>
      <trkpt lat="42.58291" lon="8.84445">
        <ele>519.72985839844</ele>
        <time>2015-06-26T09:29:56Z</time>
      </trkpt>
      <trkpt lat="42.58289" lon="8.84438">
        <ele>518.28784179688</ele>
        <time>2015-06-26T09:30:09Z</time>
      </trkpt>
      <trkpt lat="42.58287" lon="8.84427">
        <ele>518.28784179688</ele>
        <time>2015-06-26T09:30:25Z</time>
      </trkpt>
      <trkpt lat="42.58282" lon="8.84418">
        <ele>519.72985839844</ele>
        <time>2015-06-26T09:30:40Z</time>
      </trkpt>
      <trkpt lat="42.58282" lon="8.84415">
        <ele>517.80725097656</ele>
        <time>2015-06-26T09:31:09Z</time>
      </trkpt>
      <trkpt lat="42.58281" lon="8.8441">
        <ele>517.32666015625</ele>
        <time>2015-06-26T09:31:24Z</time>
      </trkpt>
      <trkpt lat="42.58281" lon="8.84409">
        <ele>516.84594726562</ele>
        <time>2015-06-26T09:31:46Z</time>
      </trkpt>
      <trkpt lat="42.5828" lon="8.84402">
        <ele>515.88464355469</ele>
        <time>2015-06-26T09:32:06Z</time>
      </trkpt>
      <trkpt lat="42.5828" lon="8.84394">
        <ele>513.4814453125</ele>
        <time>2015-06-26T09:32:23Z</time>
      </trkpt>
      <trkpt lat="42.58278" lon="8.84385">
        <ele>512.03942871094</ele>
        <time>2015-06-26T09:32:38Z</time>
      </trkpt>
      <trkpt lat="42.58275" lon="8.84383">
        <ele>513.4814453125</ele>
        <time>2015-06-26T09:32:52Z</time>
      </trkpt>
      <trkpt lat="42.58274" lon="8.8438">
        <ele>512.03942871094</ele>
        <time>2015-06-26T09:33:08Z</time>
      </trkpt>
      <trkpt lat="42.58274" lon="8.84375">
        <ele>510.59729003906</ele>
        <time>2015-06-26T09:33:23Z</time>
      </trkpt>
      <trkpt lat="42.58273" lon="8.8437">
        <ele>510.11669921875</ele>
        <time>2015-06-26T09:33:36Z</time>
      </trkpt>
      <trkpt lat="42.58272" lon="8.84369">
        <ele>509.63610839844</ele>
        <time>2015-06-26T09:33:55Z</time>
      </trkpt>
      <trkpt lat="42.58271" lon="8.84367">
        <ele>510.11669921875</ele>
        <time>2015-06-26T09:34:02Z</time>
      </trkpt>
      <trkpt lat="42.58266" lon="8.84356">
        <ele>508.67468261719</ele>
        <time>2015-06-26T09:34:18Z</time>
      </trkpt>
      <trkpt lat="42.58261" lon="8.84348">
        <ele>509.15539550781</ele>
        <time>2015-06-26T09:34:30Z</time>
      </trkpt>
      <trkpt lat="42.58254" lon="8.84337">
        <ele>509.15539550781</ele>
        <time>2015-06-26T09:34:46Z</time>
      </trkpt>
      <trkpt lat="42.58253" lon="8.8433">
        <ele>508.19409179688</ele>
        <time>2015-06-26T09:35:01Z</time>
      </trkpt>
      <trkpt lat="42.58251" lon="8.84332">
        <ele>508.19409179688</ele>
        <time>2015-06-26T09:35:14Z</time>
      </trkpt>
      <trkpt lat="42.58245" lon="8.84325">
        <ele>505.79089355469</ele>
        <time>2015-06-26T09:35:27Z</time>
      </trkpt>
      <trkpt lat="42.58243" lon="8.84316">
        <ele>503.8681640625</ele>
        <time>2015-06-26T09:35:43Z</time>
      </trkpt>
      <trkpt lat="42.5824" lon="8.84311">
        <ele>502.90673828125</ele>
        <time>2015-06-26T09:35:55Z</time>
      </trkpt>
      <trkpt lat="42.58246" lon="8.84305">
        <ele>500.98413085938</ele>
        <time>2015-06-26T09:36:08Z</time>
      </trkpt>
      <trkpt lat="42.58245" lon="8.84301">
        <ele>499.0615234375</ele>
        <time>2015-06-26T09:36:22Z</time>
      </trkpt>
      <trkpt lat="42.5824" lon="8.84292">
        <ele>497.13891601562</ele>
        <time>2015-06-26T09:36:35Z</time>
      </trkpt>
      <trkpt lat="42.58237" lon="8.8428">
        <ele>496.177734375</ele>
        <time>2015-06-26T09:36:50Z</time>
      </trkpt>
      <trkpt lat="42.58227" lon="8.84269">
        <ele>494.25500488281</ele>
        <time>2015-06-26T09:37:07Z</time>
      </trkpt>
      <trkpt lat="42.58222" lon="8.84263">
        <ele>493.29357910156</ele>
        <time>2015-06-26T09:37:22Z</time>
      </trkpt>
      <trkpt lat="42.58222" lon="8.84255">
        <ele>489.92907714844</ele>
        <time>2015-06-26T09:37:37Z</time>
      </trkpt>
      <trkpt lat="42.58221" lon="8.84248">
        <ele>489.92907714844</ele>
        <time>2015-06-26T09:37:52Z</time>
      </trkpt>
      <trkpt lat="42.58217" lon="8.84239">
        <ele>488.48718261719</ele>
        <time>2015-06-26T09:38:08Z</time>
      </trkpt>
      <trkpt lat="42.58224" lon="8.84237">
        <ele>487.52563476562</ele>
        <time>2015-06-26T09:38:26Z</time>
      </trkpt>
      <trkpt lat="42.58226" lon="8.8423">
        <ele>485.60302734375</ele>
        <time>2015-06-26T09:38:44Z</time>
      </trkpt>
      <trkpt lat="42.5823" lon="8.84222">
        <ele>483.19982910156</ele>
        <time>2015-06-26T09:39:01Z</time>
      </trkpt>
      <trkpt lat="42.58235" lon="8.84209">
        <ele>481.27722167969</ele>
        <time>2015-06-26T09:39:21Z</time>
      </trkpt>
      <trkpt lat="42.58237" lon="8.842">
        <ele>477.43188476562</ele>
        <time>2015-06-26T09:39:35Z</time>
      </trkpt>
      <trkpt lat="42.58237" lon="8.84195">
        <ele>475.98986816406</ele>
        <time>2015-06-26T09:39:41Z</time>
      </trkpt>
      <trkpt lat="42.58238" lon="8.8419">
        <ele>475.98986816406</ele>
        <time>2015-06-26T09:39:57Z</time>
      </trkpt>
      <trkpt lat="42.58242" lon="8.84185">
        <ele>474.54797363281</ele>
        <time>2015-06-26T09:40:14Z</time>
      </trkpt>
      <trkpt lat="42.58245" lon="8.84179">
        <ele>472.62536621094</ele>
        <time>2015-06-26T09:40:28Z</time>
      </trkpt>
      <trkpt lat="42.58248" lon="8.84171">
        <ele>470.22192382812</ele>
        <time>2015-06-26T09:40:49Z</time>
      </trkpt>
      <trkpt lat="42.58248" lon="8.84168">
        <ele>469.2607421875</ele>
        <time>2015-06-26T09:41:06Z</time>
      </trkpt>
      <trkpt lat="42.58256" lon="8.84159">
        <ele>467.81872558594</ele>
        <time>2015-06-26T09:41:24Z</time>
      </trkpt>
      <trkpt lat="42.58263" lon="8.84154">
        <ele>465.41552734375</ele>
        <time>2015-06-26T09:41:41Z</time>
      </trkpt>
      <trkpt lat="42.58265" lon="8.8415">
        <ele>464.4541015625</ele>
        <time>2015-06-26T09:41:57Z</time>
      </trkpt>
      <trkpt lat="42.5826" lon="8.84145">
        <ele>464.4541015625</ele>
        <time>2015-06-26T09:42:13Z</time>
      </trkpt>
      <trkpt lat="42.5826" lon="8.84145">
        <ele>464.93481445312</ele>
        <time>2015-06-26T09:42:29Z</time>
      </trkpt>
      <trkpt lat="42.58265" lon="8.84151">
        <ele>464.4541015625</ele>
        <time>2015-06-26T09:42:42Z</time>
      </trkpt>
      <trkpt lat="42.58272" lon="8.84154">
        <ele>461.57019042969</ele>
        <time>2015-06-26T09:42:57Z</time>
      </trkpt>
      <trkpt lat="42.58277" lon="8.84154">
        <ele>459.16687011719</ele>
        <time>2015-06-26T09:43:07Z</time>
      </trkpt>
      <trkpt lat="42.58285" lon="8.84159">
        <ele>457.24426269531</ele>
        <time>2015-06-26T09:43:28Z</time>
      </trkpt>
      <trkpt lat="42.5829" lon="8.84168">
        <ele>454.8408203125</ele>
        <time>2015-06-26T09:43:43Z</time>
      </trkpt>
      <trkpt lat="42.58293" lon="8.84164">
        <ele>453.39892578125</ele>
        <time>2015-06-26T09:44:01Z</time>
      </trkpt>
      <trkpt lat="42.58298" lon="8.84158">
        <ele>450.99560546875</ele>
        <time>2015-06-26T09:44:15Z</time>
      </trkpt>
      <trkpt lat="42.58302" lon="8.84155">
        <ele>448.59240722656</ele>
        <time>2015-06-26T09:44:30Z</time>
      </trkpt>
      <trkpt lat="42.58304" lon="8.84145">
        <ele>446.66967773438</ele>
        <time>2015-06-26T09:44:46Z</time>
      </trkpt>
      <trkpt lat="42.58308" lon="8.84146">
        <ele>444.26647949219</ele>
        <time>2015-06-26T09:45:05Z</time>
      </trkpt>
      <trkpt lat="42.58308" lon="8.84144">
        <ele>443.30505371094</ele>
        <time>2015-06-26T09:45:11Z</time>
      </trkpt>
      <trkpt lat="42.58309" lon="8.84139">
        <ele>441.86315917969</ele>
        <time>2015-06-26T09:45:21Z</time>
      </trkpt>
      <trkpt lat="42.5831" lon="8.84131">
        <ele>440.90185546875</ele>
        <time>2015-06-26T09:45:34Z</time>
      </trkpt>
      <trkpt lat="42.58312" lon="8.84125">
        <ele>439.45971679688</ele>
        <time>2015-06-26T09:45:48Z</time>
      </trkpt>
      <trkpt lat="42.58315" lon="8.84115">
        <ele>437.537109375</ele>
        <time>2015-06-26T09:46:05Z</time>
      </trkpt>
      <trkpt lat="42.5832" lon="8.84108">
        <ele>436.09521484375</ele>
        <time>2015-06-26T09:46:21Z</time>
      </trkpt>
      <trkpt lat="42.58323" lon="8.84099">
        <ele>433.21130371094</ele>
        <time>2015-06-26T09:46:36Z</time>
      </trkpt>
      <trkpt lat="42.58325" lon="8.84093">
        <ele>431.28857421875</ele>
        <time>2015-06-26T09:46:51Z</time>
      </trkpt>
      <trkpt lat="42.58327" lon="8.84085">
        <ele>429.84655761719</ele>
        <time>2015-06-26T09:47:08Z</time>
      </trkpt>
      <trkpt lat="42.58331" lon="8.8408">
        <ele>428.40466308594</ele>
        <time>2015-06-26T09:47:22Z</time>
      </trkpt>
      <trkpt lat="42.58336" lon="8.84082">
        <ele>427.443359375</ele>
        <time>2015-06-26T09:47:38Z</time>
      </trkpt>
      <trkpt lat="42.58337" lon="8.84075">
        <ele>424.07873535156</ele>
        <time>2015-06-26T09:47:47Z</time>
      </trkpt>
      <trkpt lat="42.58338" lon="8.84067">
        <ele>423.11743164062</ele>
        <time>2015-06-26T09:48:01Z</time>
      </trkpt>
      <trkpt lat="42.58341" lon="8.84061">
        <ele>422.15600585938</ele>
        <time>2015-06-26T09:48:16Z</time>
      </trkpt>
      <trkpt lat="42.5834" lon="8.84056">
        <ele>421.19482421875</ele>
        <time>2015-06-26T09:48:33Z</time>
      </trkpt>
      <trkpt lat="42.58342" lon="8.84046">
        <ele>418.79150390625</ele>
        <time>2015-06-26T09:48:49Z</time>
      </trkpt>
      <trkpt lat="42.58343" lon="8.84031">
        <ele>417.349609375</ele>
        <time>2015-06-26T09:49:07Z</time>
      </trkpt>
      <trkpt lat="42.58346" lon="8.84026">
        <ele>416.38818359375</ele>
        <time>2015-06-26T09:49:20Z</time>
      </trkpt>
      <trkpt lat="42.58349" lon="8.84015">
        <ele>413.02355957031</ele>
        <time>2015-06-26T09:49:39Z</time>
      </trkpt>
      <trkpt lat="42.58353" lon="8.84004">
        <ele>410.62023925781</ele>
        <time>2015-06-26T09:49:56Z</time>
      </trkpt>
      <trkpt lat="42.58354" lon="8.83993">
        <ele>408.21704101562</ele>
        <time>2015-06-26T09:50:12Z</time>
      </trkpt>
      <trkpt lat="42.5836" lon="8.83989">
        <ele>405.81372070312</ele>
        <time>2015-06-26T09:50:26Z</time>
      </trkpt>
      <trkpt lat="42.58368" lon="8.83987">
        <ele>404.37170410156</ele>
        <time>2015-06-26T09:50:42Z</time>
      </trkpt>
      <trkpt lat="42.58376" lon="8.8398">
        <ele>402.9296875</ele>
        <time>2015-06-26T09:50:57Z</time>
      </trkpt>
      <trkpt lat="42.58379" lon="8.83975">
        <ele>401.48779296875</ele>
        <time>2015-06-26T09:51:15Z</time>
      </trkpt>
      <trkpt lat="42.58376" lon="8.83966">
        <ele>401.00708007812</ele>
        <time>2015-06-26T09:51:29Z</time>
      </trkpt>
      <trkpt lat="42.58374" lon="8.83952">
        <ele>399.56506347656</ele>
        <time>2015-06-26T09:51:46Z</time>
      </trkpt>
      <trkpt lat="42.58372" lon="8.83943">
        <ele>397.16174316406</ele>
        <time>2015-06-26T09:52:06Z</time>
      </trkpt>
      <trkpt lat="42.58375" lon="8.83926">
        <ele>394.27795410156</ele>
        <time>2015-06-26T09:52:26Z</time>
      </trkpt>
      <trkpt lat="42.58376" lon="8.83912">
        <ele>391.87451171875</ele>
        <time>2015-06-26T09:52:45Z</time>
      </trkpt>
      <trkpt lat="42.58373" lon="8.83896">
        <ele>389.95190429688</ele>
        <time>2015-06-26T09:53:01Z</time>
      </trkpt>
      <trkpt lat="42.58372" lon="8.83894">
        <ele>389.95190429688</ele>
        <time>2015-06-26T09:53:03Z</time>
      </trkpt>
      <trkpt lat="42.58365" lon="8.83882">
        <ele>388.029296875</ele>
        <time>2015-06-26T09:53:19Z</time>
      </trkpt>
      <trkpt lat="42.58371" lon="8.83876">
        <ele>387.06799316406</ele>
        <time>2015-06-26T09:53:35Z</time>
      </trkpt>
      <trkpt lat="42.58372" lon="8.83878">
        <ele>387.06799316406</ele>
        <time>2015-06-26T09:53:42Z</time>
      </trkpt>
      <trkpt lat="42.58384" lon="8.83882">
        <ele>386.10668945312</ele>
        <time>2015-06-26T09:53:59Z</time>
      </trkpt>
      <trkpt lat="42.58394" lon="8.83888">
        <ele>385.14538574219</ele>
        <time>2015-06-26T09:54:13Z</time>
      </trkpt>
      <trkpt lat="42.58407" lon="8.83897">
        <ele>383.22265625</ele>
        <time>2015-06-26T09:54:29Z</time>
      </trkpt>
      <trkpt lat="42.58418" lon="8.83899">
        <ele>381.30004882812</ele>
        <time>2015-06-26T09:54:45Z</time>
      </trkpt>
      <trkpt lat="42.5842" lon="8.839">
        <ele>381.30004882812</ele>
        <time>2015-06-26T09:55:23Z</time>
      </trkpt>
      <trkpt lat="42.58421" lon="8.83903">
        <ele>381.78063964844</ele>
        <time>2015-06-26T09:55:48Z</time>
      </trkpt>
      <trkpt lat="42.58425" lon="8.83908">
        <ele>380.81945800781</ele>
        <time>2015-06-26T09:56:04Z</time>
      </trkpt>
      <trkpt lat="42.58425" lon="8.83906">
        <ele>381.30004882812</ele>
        <time>2015-06-26T09:56:14Z</time>
      </trkpt>
      <trkpt lat="42.58426" lon="8.83905">
        <ele>381.30004882812</ele>
        <time>2015-06-26T09:56:15Z</time>
      </trkpt>
      <trkpt lat="42.58431" lon="8.83913">
        <ele>381.30004882812</ele>
        <time>2015-06-26T09:56:27Z</time>
      </trkpt>
      <trkpt lat="42.58431" lon="8.83913">
        <ele>380.81945800781</ele>
        <time>2015-06-26T09:56:31Z</time>
      </trkpt>
      <trkpt lat="42.58432" lon="8.83913">
        <ele>380.81945800781</ele>
        <time>2015-06-26T09:56:33Z</time>
      </trkpt>
      <trkpt lat="42.58446" lon="8.8391">
        <ele>379.85803222656</ele>
        <time>2015-06-26T09:56:49Z</time>
      </trkpt>
      <trkpt lat="42.58452" lon="8.83897">
        <ele>381.78063964844</ele>
        <time>2015-06-26T09:57:02Z</time>
      </trkpt>
      <trkpt lat="42.58455" lon="8.8388">
        <ele>381.30004882812</ele>
        <time>2015-06-26T09:57:19Z</time>
      </trkpt>
      <trkpt lat="42.58463" lon="8.83869">
        <ele>380.33874511719</ele>
        <time>2015-06-26T09:57:34Z</time>
      </trkpt>
      <trkpt lat="42.58464" lon="8.83862">
        <ele>377.93542480469</ele>
        <time>2015-06-26T09:57:50Z</time>
      </trkpt>
      <trkpt lat="42.58464" lon="8.83845">
        <ele>376.97424316406</ele>
        <time>2015-06-26T09:58:05Z</time>
      </trkpt>
      <trkpt lat="42.58457" lon="8.83814">
        <ele>376.97424316406</ele>
        <time>2015-06-26T09:58:27Z</time>
      </trkpt>
      <trkpt lat="42.58452" lon="8.83795">
        <ele>376.97424316406</ele>
        <time>2015-06-26T09:58:44Z</time>
      </trkpt>
      <trkpt lat="42.58451" lon="8.83775">
        <ele>376.49353027344</ele>
        <time>2015-06-26T09:59:01Z</time>
      </trkpt>
      <trkpt lat="42.58443" lon="8.8376">
        <ele>374.09008789062</ele>
        <time>2015-06-26T09:59:19Z</time>
      </trkpt>
      <trkpt lat="42.5844" lon="8.83758">
        <ele>373.12890625</ele>
        <time>2015-06-26T09:59:23Z</time>
      </trkpt>
      <trkpt lat="42.58436" lon="8.83746">
        <ele>371.68688964844</ele>
        <time>2015-06-26T09:59:39Z</time>
      </trkpt>
      <trkpt lat="42.58443" lon="8.8373">
        <ele>368.80297851562</ele>
        <time>2015-06-26T10:00:00Z</time>
      </trkpt>
      <trkpt lat="42.58445" lon="8.8372">
        <ele>367.36096191406</ele>
        <time>2015-06-26T10:00:18Z</time>
      </trkpt>
      <trkpt lat="42.58446" lon="8.8371">
        <ele>365.43835449219</ele>
        <time>2015-06-26T10:00:36Z</time>
      </trkpt>
      <trkpt lat="42.58445" lon="8.83708">
        <ele>363.99633789062</ele>
        <time>2015-06-26T10:00:39Z</time>
      </trkpt>
      <trkpt lat="42.58446" lon="8.83702">
        <ele>363.99633789062</ele>
        <time>2015-06-26T10:00:55Z</time>
      </trkpt>
      <trkpt lat="42.58451" lon="8.83706">
        <ele>363.03503417969</ele>
        <time>2015-06-26T10:01:11Z</time>
      </trkpt>
      <trkpt lat="42.58452" lon="8.83701">
        <ele>360.15112304688</ele>
        <time>2015-06-26T10:01:22Z</time>
      </trkpt>
      <trkpt lat="42.58455" lon="8.837">
        <ele>359.67041015625</ele>
        <time>2015-06-26T10:01:37Z</time>
      </trkpt>
      <trkpt lat="42.58453" lon="8.83692">
        <ele>356.30578613281</ele>
        <time>2015-06-26T10:01:48Z</time>
      </trkpt>
      <trkpt lat="42.58458" lon="8.83696">
        <ele>355.34448242188</ele>
        <time>2015-06-26T10:02:02Z</time>
      </trkpt>
      <trkpt lat="42.58465" lon="8.83704">
        <ele>353.421875</ele>
        <time>2015-06-26T10:02:20Z</time>
      </trkpt>
      <trkpt lat="42.58469" lon="8.83698">
        <ele>351.49914550781</ele>
        <time>2015-06-26T10:02:36Z</time>
      </trkpt>
      <trkpt lat="42.5847" lon="8.83696">
        <ele>350.05725097656</ele>
        <time>2015-06-26T10:02:39Z</time>
      </trkpt>
      <trkpt lat="42.58469" lon="8.83687">
        <ele>348.615234375</ele>
        <time>2015-06-26T10:02:56Z</time>
      </trkpt>
      <trkpt lat="42.58471" lon="8.83677">
        <ele>345.73132324219</ele>
        <time>2015-06-26T10:03:10Z</time>
      </trkpt>
      <trkpt lat="42.58469" lon="8.83666">
        <ele>343.80859375</ele>
        <time>2015-06-26T10:03:26Z</time>
      </trkpt>
      <trkpt lat="42.58464" lon="8.83649">
        <ele>341.88598632812</ele>
        <time>2015-06-26T10:03:45Z</time>
      </trkpt>
      <trkpt lat="42.58461" lon="8.83634">
        <ele>339.96337890625</ele>
        <time>2015-06-26T10:04:03Z</time>
      </trkpt>
      <trkpt lat="42.58458" lon="8.83619">
        <ele>339.48266601562</ele>
        <time>2015-06-26T10:04:18Z</time>
      </trkpt>
      <trkpt lat="42.58454" lon="8.83607">
        <ele>337.56005859375</ele>
        <time>2015-06-26T10:04:35Z</time>
      </trkpt>
      <trkpt lat="42.58458" lon="8.83601">
        <ele>334.67614746094</ele>
        <time>2015-06-26T10:04:52Z</time>
      </trkpt>
      <trkpt lat="42.58459" lon="8.83587">
        <ele>333.23413085938</ele>
        <time>2015-06-26T10:05:09Z</time>
      </trkpt>
      <trkpt lat="42.58462" lon="8.83575">
        <ele>330.35021972656</ele>
        <time>2015-06-26T10:05:24Z</time>
      </trkpt>
      <trkpt lat="42.58463" lon="8.83571">
        <ele>330.35021972656</ele>
        <time>2015-06-26T10:05:42Z</time>
      </trkpt>
      <trkpt lat="42.58459" lon="8.83568">
        <ele>329.38891601562</ele>
        <time>2015-06-26T10:06:11Z</time>
      </trkpt>
      <trkpt lat="42.58459" lon="8.83554">
        <ele>326.5048828125</ele>
        <time>2015-06-26T10:06:27Z</time>
      </trkpt>
      <trkpt lat="42.58464" lon="8.83544">
        <ele>324.1015625</ele>
        <time>2015-06-26T10:06:41Z</time>
      </trkpt>
      <trkpt lat="42.58468" lon="8.83531">
        <ele>323.14038085938</ele>
        <time>2015-06-26T10:06:57Z</time>
      </trkpt>
      <trkpt lat="42.58464" lon="8.83521">
        <ele>320.25634765625</ele>
        <time>2015-06-26T10:07:10Z</time>
      </trkpt>
      <trkpt lat="42.58468" lon="8.83507">
        <ele>318.33361816406</ele>
        <time>2015-06-26T10:07:27Z</time>
      </trkpt>
      <trkpt lat="42.58466" lon="8.83501">
        <ele>315.44982910156</ele>
        <time>2015-06-26T10:07:42Z</time>
      </trkpt>
      <trkpt lat="42.58463" lon="8.83492">
        <ele>313.52722167969</ele>
        <time>2015-06-26T10:07:56Z</time>
      </trkpt>
      <trkpt lat="42.58466" lon="8.83487">
        <ele>310.64306640625</ele>
        <time>2015-06-26T10:08:10Z</time>
      </trkpt>
      <trkpt lat="42.58469" lon="8.83484">
        <ele>309.201171875</ele>
        <time>2015-06-26T10:08:24Z</time>
      </trkpt>
      <trkpt lat="42.58473" lon="8.8348">
        <ele>306.7978515625</ele>
        <time>2015-06-26T10:08:37Z</time>
      </trkpt>
      <trkpt lat="42.58477" lon="8.83473">
        <ele>303.91394042969</ele>
        <time>2015-06-26T10:08:53Z</time>
      </trkpt>
      <trkpt lat="42.58472" lon="8.83462">
        <ele>302.47192382812</ele>
        <time>2015-06-26T10:09:09Z</time>
      </trkpt>
      <trkpt lat="42.58467" lon="8.83448">
        <ele>301.02990722656</ele>
        <time>2015-06-26T10:09:22Z</time>
      </trkpt>
      <trkpt lat="42.58457" lon="8.8344">
        <ele>299.58801269531</ele>
        <time>2015-06-26T10:09:38Z</time>
      </trkpt>
      <trkpt lat="42.58448" lon="8.83438">
        <ele>298.14611816406</ele>
        <time>2015-06-26T10:09:54Z</time>
      </trkpt>
      <trkpt lat="42.58441" lon="8.83435">
        <ele>295.26196289062</ele>
        <time>2015-06-26T10:10:09Z</time>
      </trkpt>
      <trkpt lat="42.58446" lon="8.83424">
        <ele>293.33935546875</ele>
        <time>2015-06-26T10:10:23Z</time>
      </trkpt>
      <trkpt lat="42.58446" lon="8.83415">
        <ele>290.45556640625</ele>
        <time>2015-06-26T10:10:36Z</time>
      </trkpt>
      <trkpt lat="42.58437" lon="8.8341">
        <ele>289.494140625</ele>
        <time>2015-06-26T10:10:49Z</time>
      </trkpt>
      <trkpt lat="42.58424" lon="8.83406">
        <ele>287.0908203125</ele>
        <time>2015-06-26T10:11:08Z</time>
      </trkpt>
      <trkpt lat="42.58413" lon="8.8341">
        <ele>285.64880371094</ele>
        <time>2015-06-26T10:11:23Z</time>
      </trkpt>
      <trkpt lat="42.58412" lon="8.83412">
        <ele>285.16821289062</ele>
        <time>2015-06-26T10:11:25Z</time>
      </trkpt>
      <trkpt lat="42.58405" lon="8.83412">
        <ele>283.24560546875</ele>
        <time>2015-06-26T10:11:37Z</time>
      </trkpt>
      <trkpt lat="42.58399" lon="8.83412">
        <ele>280.84240722656</ele>
        <time>2015-06-26T10:11:49Z</time>
      </trkpt>
      <trkpt lat="42.58393" lon="8.83412">
        <ele>279.880859375</ele>
        <time>2015-06-26T10:12:02Z</time>
      </trkpt>
      <trkpt lat="42.58394" lon="8.83402">
        <ele>277.95825195312</ele>
        <time>2015-06-26T10:12:16Z</time>
      </trkpt>
      <trkpt lat="42.58392" lon="8.83392">
        <ele>275.07446289062</ele>
        <time>2015-06-26T10:12:29Z</time>
      </trkpt>
      <trkpt lat="42.58388" lon="8.8339">
        <ele>273.63244628906</ele>
        <time>2015-06-26T10:12:40Z</time>
      </trkpt>
      <trkpt lat="42.58378" lon="8.83383">
        <ele>271.70971679688</ele>
        <time>2015-06-26T10:12:53Z</time>
      </trkpt>
      <trkpt lat="42.5837" lon="8.83381">
        <ele>269.30651855469</ele>
        <time>2015-06-26T10:13:08Z</time>
      </trkpt>
      <trkpt lat="42.58367" lon="8.83376">
        <ele>267.86450195312</ele>
        <time>2015-06-26T10:13:22Z</time>
      </trkpt>
      <trkpt lat="42.58363" lon="8.83374">
        <ele>266.42248535156</ele>
        <time>2015-06-26T10:13:32Z</time>
      </trkpt>
      <trkpt lat="42.58357" lon="8.83373">
        <ele>264.98059082031</ele>
        <time>2015-06-26T10:13:43Z</time>
      </trkpt>
      <trkpt lat="42.58355" lon="8.83371">
        <ele>263.05786132812</ele>
        <time>2015-06-26T10:13:56Z</time>
      </trkpt>
      <trkpt lat="42.58348" lon="8.83369">
        <ele>261.61596679688</ele>
        <time>2015-06-26T10:14:10Z</time>
      </trkpt>
      <trkpt lat="42.5834" lon="8.83369">
        <ele>258.73193359375</ele>
        <time>2015-06-26T10:14:26Z</time>
      </trkpt>
      <trkpt lat="42.58329" lon="8.83365">
        <ele>256.80932617188</ele>
        <time>2015-06-26T10:14:43Z</time>
      </trkpt>
      <trkpt lat="42.58324" lon="8.83366">
        <ele>254.40600585938</ele>
        <time>2015-06-26T10:14:55Z</time>
      </trkpt>
      <trkpt lat="42.58316" lon="8.83362">
        <ele>252.96398925781</ele>
        <time>2015-06-26T10:15:06Z</time>
      </trkpt>
      <trkpt lat="42.58308" lon="8.83365">
        <ele>252.00280761719</ele>
        <time>2015-06-26T10:15:24Z</time>
      </trkpt>
      <trkpt lat="42.58304" lon="8.8336">
        <ele>250.56079101562</ele>
        <time>2015-06-26T10:15:37Z</time>
      </trkpt>
      <trkpt lat="42.58299" lon="8.83352">
        <ele>247.6767578125</ele>
        <time>2015-06-26T10:15:53Z</time>
      </trkpt>
      <trkpt lat="42.583" lon="8.83344">
        <ele>246.23486328125</ele>
        <time>2015-06-26T10:16:04Z</time>
      </trkpt>
      <trkpt lat="42.58295" lon="8.83332">
        <ele>244.31225585938</ele>
        <time>2015-06-26T10:16:21Z</time>
      </trkpt>
      <trkpt lat="42.58292" lon="8.83323">
        <ele>242.3896484375</ele>
        <time>2015-06-26T10:16:35Z</time>
      </trkpt>
      <trkpt lat="42.58291" lon="8.83315">
        <ele>239.98620605469</ele>
        <time>2015-06-26T10:16:52Z</time>
      </trkpt>
      <trkpt lat="42.58286" lon="8.83304">
        <ele>237.58288574219</ele>
        <time>2015-06-26T10:17:11Z</time>
      </trkpt>
      <trkpt lat="42.5828" lon="8.83299">
        <ele>236.14099121094</ele>
        <time>2015-06-26T10:17:24Z</time>
      </trkpt>
      <trkpt lat="42.58276" lon="8.83288">
        <ele>233.25708007812</ele>
        <time>2015-06-26T10:17:41Z</time>
      </trkpt>
      <trkpt lat="42.58276" lon="8.83275">
        <ele>230.373046875</ele>
        <time>2015-06-26T10:17:55Z</time>
      </trkpt>
      <trkpt lat="42.58272" lon="8.83267">
        <ele>228.93115234375</ele>
        <time>2015-06-26T10:18:12Z</time>
      </trkpt>
      <trkpt lat="42.5827" lon="8.83261">
        <ele>228.93115234375</ele>
        <time>2015-06-26T10:18:31Z</time>
      </trkpt>
      <trkpt lat="42.58262" lon="8.83252">
        <ele>227.00854492188</ele>
        <time>2015-06-26T10:18:46Z</time>
      </trkpt>
      <trkpt lat="42.58252" lon="8.83243">
        <ele>224.60522460938</ele>
        <time>2015-06-26T10:19:03Z</time>
      </trkpt>
      <trkpt lat="42.58245" lon="8.83236">
        <ele>223.64379882812</ele>
        <time>2015-06-26T10:19:20Z</time>
      </trkpt>
      <trkpt lat="42.58244" lon="8.83236">
        <ele>223.64379882812</ele>
        <time>2015-06-26T10:19:22Z</time>
      </trkpt>
      <trkpt lat="42.58231" lon="8.8323">
        <ele>222.20178222656</ele>
        <time>2015-06-26T10:19:38Z</time>
      </trkpt>
      <trkpt lat="42.58216" lon="8.83225">
        <ele>219.79858398438</ele>
        <time>2015-06-26T10:19:55Z</time>
      </trkpt>
      <trkpt lat="42.5821" lon="8.83222">
        <ele>219.79858398438</ele>
        <time>2015-06-26T10:20:08Z</time>
      </trkpt>
      <trkpt lat="42.58209" lon="8.83227">
        <ele>219.31799316406</ele>
        <time>2015-06-26T10:20:23Z</time>
      </trkpt>
      <trkpt lat="42.58197" lon="8.83217">
        <ele>217.39538574219</ele>
        <time>2015-06-26T10:20:37Z</time>
      </trkpt>
      <trkpt lat="42.58192" lon="8.83214">
        <ele>215.47265625</ele>
        <time>2015-06-26T10:20:45Z</time>
      </trkpt>
      <trkpt lat="42.58176" lon="8.83204">
        <ele>214.03063964844</ele>
        <time>2015-06-26T10:21:03Z</time>
      </trkpt>
      <trkpt lat="42.58168" lon="8.83196">
        <ele>211.14672851562</ele>
        <time>2015-06-26T10:21:22Z</time>
      </trkpt>
      <trkpt lat="42.58167" lon="8.83193">
        <ele>211.14672851562</ele>
        <time>2015-06-26T10:21:37Z</time>
      </trkpt>
      <trkpt lat="42.58162" lon="8.83205">
        <ele>209.70483398438</ele>
        <time>2015-06-26T10:21:54Z</time>
      </trkpt>
      <trkpt lat="42.5816" lon="8.83206">
        <ele>209.22412109375</ele>
        <time>2015-06-26T10:21:57Z</time>
      </trkpt>
      <trkpt lat="42.58144" lon="8.83209">
        <ele>205.37878417969</ele>
        <time>2015-06-26T10:22:15Z</time>
      </trkpt>
      <trkpt lat="42.58135" lon="8.83217">
        <ele>204.89807128906</ele>
        <time>2015-06-26T10:22:28Z</time>
      </trkpt>
      <trkpt lat="42.58127" lon="8.83236">
        <ele>203.93688964844</ele>
        <time>2015-06-26T10:22:43Z</time>
      </trkpt>
      <trkpt lat="42.58119" lon="8.83246">
        <ele>202.01428222656</ele>
        <time>2015-06-26T10:22:55Z</time>
      </trkpt>
      <trkpt lat="42.58109" lon="8.83249">
        <ele>201.05285644531</ele>
        <time>2015-06-26T10:23:03Z</time>
      </trkpt>
      <trkpt lat="42.58087" lon="8.83256">
        <ele>201.53356933594</ele>
        <time>2015-06-26T10:23:22Z</time>
      </trkpt>
      <trkpt lat="42.5808" lon="8.83265">
        <ele>202.01428222656</ele>
        <time>2015-06-26T10:23:37Z</time>
      </trkpt>
      <trkpt lat="42.58057" lon="8.83271">
        <ele>203.93688964844</ele>
        <time>2015-06-26T10:23:55Z</time>
      </trkpt>
      <trkpt lat="42.58036" lon="8.8328">
        <ele>204.89807128906</ele>
        <time>2015-06-26T10:24:15Z</time>
      </trkpt>
      <trkpt lat="42.58022" lon="8.83283">
        <ele>204.89807128906</ele>
        <time>2015-06-26T10:24:35Z</time>
      </trkpt>
      <trkpt lat="42.58022" lon="8.83283">
        <ele>204.89807128906</ele>
        <time>2015-06-26T10:24:39Z</time>
      </trkpt>
      <trkpt lat="42.58016" lon="8.83282">
        <ele>204.89807128906</ele>
        <time>2015-06-26T10:24:42Z</time>
      </trkpt>
      <trkpt lat="42.58005" lon="8.83286">
        <ele>204.89807128906</ele>
        <time>2015-06-26T10:24:53Z</time>
      </trkpt>
      <trkpt lat="42.57988" lon="8.83286">
        <ele>205.85949707031</ele>
        <time>2015-06-26T10:25:10Z</time>
      </trkpt>
      <trkpt lat="42.57966" lon="8.83278">
        <ele>207.30139160156</ele>
        <time>2015-06-26T10:25:27Z</time>
      </trkpt>
      <trkpt lat="42.57942" lon="8.83268">
        <ele>207.78210449219</ele>
        <time>2015-06-26T10:25:46Z</time>
      </trkpt>
      <trkpt lat="42.57935" lon="8.83267">
        <ele>208.74340820312</ele>
        <time>2015-06-26T10:25:52Z</time>
      </trkpt>
      <trkpt lat="42.57927" lon="8.83261">
        <ele>208.74340820312</ele>
        <time>2015-06-26T10:26:00Z</time>
      </trkpt>
      <trkpt lat="42.57898" lon="8.83252">
        <ele>211.14672851562</ele>
        <time>2015-06-26T10:26:23Z</time>
      </trkpt>
      <trkpt lat="42.57881" lon="8.83255">
        <ele>211.62744140625</ele>
        <time>2015-06-26T10:26:42Z</time>
      </trkpt>
      <trkpt lat="42.57884" lon="8.83257">
        <ele>211.62744140625</ele>
        <time>2015-06-26T10:26:59Z</time>
      </trkpt>
      <trkpt lat="42.57884" lon="8.83258">
        <ele>210.666015625</ele>
        <time>2015-06-26T10:27:04Z</time>
      </trkpt>
      <trkpt lat="42.57877" lon="8.83267">
        <ele>211.14672851562</ele>
        <time>2015-06-26T10:27:12Z</time>
      </trkpt>
      <trkpt lat="42.57874" lon="8.83273">
        <ele>210.18542480469</ele>
        <time>2015-06-26T10:27:17Z</time>
      </trkpt>
      <trkpt lat="42.57868" lon="8.83303">
        <ele>212.58862304688</ele>
        <time>2015-06-26T10:27:36Z</time>
      </trkpt>
      <trkpt lat="42.57862" lon="8.83327">
        <ele>213.55004882812</ele>
        <time>2015-06-26T10:27:52Z</time>
      </trkpt>
      <trkpt lat="42.57861" lon="8.83343">
        <ele>214.99194335938</ele>
        <time>2015-06-26T10:28:02Z</time>
      </trkpt>
      <trkpt lat="42.57859" lon="8.83352">
        <ele>215.47265625</ele>
        <time>2015-06-26T10:28:07Z</time>
      </trkpt>
      <trkpt lat="42.57853" lon="8.83378">
        <ele>216.91467285156</ele>
        <time>2015-06-26T10:28:24Z</time>
      </trkpt>
      <trkpt lat="42.57849" lon="8.83403">
        <ele>217.39538574219</ele>
        <time>2015-06-26T10:28:40Z</time>
      </trkpt>
      <trkpt lat="42.57847" lon="8.83418">
        <ele>216.91467285156</ele>
        <time>2015-06-26T10:28:54Z</time>
      </trkpt>
      <trkpt lat="42.57848" lon="8.83442">
        <ele>218.83728027344</ele>
        <time>2015-06-26T10:29:31Z</time>
      </trkpt>
      <trkpt lat="42.57846" lon="8.83459">
        <ele>217.8759765625</ele>
        <time>2015-06-26T10:29:47Z</time>
      </trkpt>
      <trkpt lat="42.57842" lon="8.83474">
        <ele>214.51123046875</ele>
        <time>2015-06-26T10:30:02Z</time>
      </trkpt>
      <trkpt lat="42.57836" lon="8.83478">
        <ele>211.14672851562</ele>
        <time>2015-06-26T10:30:13Z</time>
      </trkpt>
      <trkpt lat="42.5783" lon="8.83475">
        <ele>208.26281738281</ele>
        <time>2015-06-26T10:30:30Z</time>
      </trkpt>
      <trkpt lat="42.57823" lon="8.83476">
        <ele>206.34008789062</ele>
        <time>2015-06-26T10:30:43Z</time>
      </trkpt>
      <trkpt lat="42.57819" lon="8.83491">
        <ele>204.41748046875</ele>
        <time>2015-06-26T10:30:57Z</time>
      </trkpt>
      <trkpt lat="42.57811" lon="8.83487">
        <ele>203.93688964844</ele>
        <time>2015-06-26T10:31:10Z</time>
      </trkpt>
      <trkpt lat="42.57799" lon="8.83488">
        <ele>202.01428222656</ele>
        <time>2015-06-26T10:31:23Z</time>
      </trkpt>
      <trkpt lat="42.57793" lon="8.83487">
        <ele>198.1689453125</ele>
        <time>2015-06-26T10:31:36Z</time>
      </trkpt>
      <trkpt lat="42.57788" lon="8.83492">
        <ele>197.20751953125</ele>
        <time>2015-06-26T10:31:52Z</time>
      </trkpt>
      <trkpt lat="42.57785" lon="8.83498">
        <ele>195.765625</ele>
        <time>2015-06-26T10:32:03Z</time>
      </trkpt>
      <trkpt lat="42.57776" lon="8.83503">
        <ele>195.28491210938</ele>
        <time>2015-06-26T10:32:17Z</time>
      </trkpt>
      <trkpt lat="42.57768" lon="8.83517">
        <ele>195.765625</ele>
        <time>2015-06-26T10:32:35Z</time>
      </trkpt>
      <trkpt lat="42.57758" lon="8.83519">
        <ele>195.765625</ele>
        <time>2015-06-26T10:32:47Z</time>
      </trkpt>
      <trkpt lat="42.57755" lon="8.83519">
        <ele>195.765625</ele>
        <time>2015-06-26T10:32:52Z</time>
      </trkpt>
      <trkpt lat="42.57739" lon="8.83521">
        <ele>196.72692871094</ele>
        <time>2015-06-26T10:33:07Z</time>
      </trkpt>
      <trkpt lat="42.57739" lon="8.83525">
        <ele>196.72692871094</ele>
        <time>2015-06-26T10:33:10Z</time>
      </trkpt>
      <trkpt lat="42.57722" lon="8.83535">
        <ele>197.20751953125</ele>
        <time>2015-06-26T10:33:20Z</time>
      </trkpt>
      <trkpt lat="42.57707" lon="8.83539">
        <ele>198.1689453125</ele>
        <time>2015-06-26T10:33:35Z</time>
      </trkpt>
      <trkpt lat="42.57704" lon="8.83551">
        <ele>198.64953613281</ele>
        <time>2015-06-26T10:33:48Z</time>
      </trkpt>
      <trkpt lat="42.57696" lon="8.83558">
        <ele>199.13012695312</ele>
        <time>2015-06-26T10:33:54Z</time>
      </trkpt>
      <trkpt lat="42.57688" lon="8.83563">
        <ele>199.13012695312</ele>
        <time>2015-06-26T10:33:59Z</time>
      </trkpt>
      <trkpt lat="42.57672" lon="8.83575">
        <ele>200.572265625</ele>
        <time>2015-06-26T10:34:15Z</time>
      </trkpt>
      <trkpt lat="42.57663" lon="8.83578">
        <ele>201.05285644531</ele>
        <time>2015-06-26T10:34:25Z</time>
      </trkpt>
      <trkpt lat="42.57654" lon="8.83579">
        <ele>201.05285644531</ele>
        <time>2015-06-26T10:34:32Z</time>
      </trkpt>
      <trkpt lat="42.57624" lon="8.83578">
        <ele>203.93688964844</ele>
        <time>2015-06-26T10:34:52Z</time>
      </trkpt>
      <trkpt lat="42.57604" lon="8.83575">
        <ele>203.93688964844</ele>
        <time>2015-06-26T10:35:11Z</time>
      </trkpt>
      <trkpt lat="42.57606" lon="8.83577">
        <ele>202.49487304688</ele>
        <time>2015-06-26T10:35:59Z</time>
      </trkpt>
    </trkseg>
  </trk>
</gpx>